<?xml version="1.0" encoding="UTF-8" standalone="no" ?>
<gpx xmlns="http://www.topografix.com/GPX/1/1" xmlns:xsi="http://www.w3.org/2001/XMLSchema-instance" xsi:schemaLocation="http://www.topografix.com/GPX/1/1 http://www.topografix.com/GPX/1/1/gpx.xsd" version="1.1" creator="VisuGPX - https://www.visugpx.com">
  <metadata>
    <name>Balade hivernale</name>
    <desc><![CDATA[Balade effectuée du 9 décembre 2022 au 7 janvier 2023.]]></desc>
  </metadata>
  <trk>
    <name><![CDATA[Arcachon - La Teste de Buch]]></name>
    <extensions>
      <line xmlns="http://www.topografix.com/GPX/gpx_style/0/2">
        <color>ff0000</color>
        <width>4</width>
      </line>
    </extensions>
    <trkseg>
      <trkpt lat="44.65136" lon="-1.174">
        <ele>77.097072</ele>
        <time>2022-12-26T08:21:22.143Z</time>
      </trkpt>
      <trkpt lat="44.65144" lon="-1.17409">
        <ele>77.097072</ele>
        <time>2022-12-26T08:21:37.201Z</time>
      </trkpt>
      <trkpt lat="44.6515" lon="-1.17418">
        <ele>77.097072</ele>
        <time>2022-12-26T08:22:00.188Z</time>
      </trkpt>
      <trkpt lat="44.65152" lon="-1.17435">
        <ele>77.097072</ele>
        <time>2022-12-26T08:22:05.190Z</time>
      </trkpt>
      <trkpt lat="44.65155" lon="-1.17451">
        <ele>77.097072</ele>
        <time>2022-12-26T08:22:09.212Z</time>
      </trkpt>
      <trkpt lat="44.65157" lon="-1.17466">
        <ele>77.097072</ele>
        <time>2022-12-26T08:22:13.212Z</time>
      </trkpt>
      <trkpt lat="44.6516" lon="-1.17479">
        <ele>77.097072</ele>
        <time>2022-12-26T08:22:16.217Z</time>
      </trkpt>
      <trkpt lat="44.65161" lon="-1.17492">
        <ele>77.097072</ele>
        <time>2022-12-26T08:22:19.214Z</time>
      </trkpt>
      <trkpt lat="44.65163" lon="-1.17504">
        <ele>77.097072</ele>
        <time>2022-12-26T08:22:22.201Z</time>
      </trkpt>
      <trkpt lat="44.65166" lon="-1.17517">
        <ele>76.996381</ele>
        <time>2022-12-26T08:22:25.207Z</time>
      </trkpt>
      <trkpt lat="44.65168" lon="-1.17532">
        <ele>75.987717</ele>
        <time>2022-12-26T08:22:28.216Z</time>
      </trkpt>
      <trkpt lat="44.6517" lon="-1.17547">
        <ele>74.960941</ele>
        <time>2022-12-26T08:22:31.207Z</time>
      </trkpt>
      <trkpt lat="44.65172" lon="-1.17561">
        <ele>73.950629</ele>
        <time>2022-12-26T08:22:34.214Z</time>
      </trkpt>
      <trkpt lat="44.65175" lon="-1.17577">
        <ele>72.872244</ele>
        <time>2022-12-26T08:22:37.215Z</time>
      </trkpt>
      <trkpt lat="44.65177" lon="-1.17592">
        <ele>71.837019</ele>
        <time>2022-12-26T08:22:40.214Z</time>
      </trkpt>
      <trkpt lat="44.65179" lon="-1.17607">
        <ele>70.74859</ele>
        <time>2022-12-26T08:22:43.216Z</time>
      </trkpt>
      <trkpt lat="44.65181" lon="-1.17621">
        <ele>69.826048</ele>
        <time>2022-12-26T08:22:46.189Z</time>
      </trkpt>
      <trkpt lat="44.65183" lon="-1.17636">
        <ele>68.770884</ele>
        <time>2022-12-26T08:22:50.216Z</time>
      </trkpt>
      <trkpt lat="44.65186" lon="-1.17651">
        <ele>67.748317</ele>
        <time>2022-12-26T08:22:54.182Z</time>
      </trkpt>
      <trkpt lat="44.65189" lon="-1.17665">
        <ele>66.757019</ele>
        <time>2022-12-26T08:22:58.194Z</time>
      </trkpt>
      <trkpt lat="44.65192" lon="-1.17679">
        <ele>65.755504</ele>
        <time>2022-12-26T08:23:02.218Z</time>
      </trkpt>
      <trkpt lat="44.65194" lon="-1.17695">
        <ele>64.643696</ele>
        <time>2022-12-26T08:23:06.209Z</time>
      </trkpt>
      <trkpt lat="44.65196" lon="-1.17709">
        <ele>63.695242</ele>
        <time>2022-12-26T08:23:09.185Z</time>
      </trkpt>
      <trkpt lat="44.65199" lon="-1.17724">
        <ele>62.611673</ele>
        <time>2022-12-26T08:23:12.203Z</time>
      </trkpt>
      <trkpt lat="44.65201" lon="-1.17739">
        <ele>61.633246</ele>
        <time>2022-12-26T08:23:15.213Z</time>
      </trkpt>
      <trkpt lat="44.65203" lon="-1.17754">
        <ele>60.586507</ele>
        <time>2022-12-26T08:23:19.202Z</time>
      </trkpt>
      <trkpt lat="44.65206" lon="-1.17769">
        <ele>59.805429</ele>
        <time>2022-12-26T08:23:23.211Z</time>
      </trkpt>
      <trkpt lat="44.65208" lon="-1.17782">
        <ele>59.484143</ele>
        <time>2022-12-26T08:23:26.184Z</time>
      </trkpt>
      <trkpt lat="44.6521" lon="-1.17795">
        <ele>59.161934</ele>
        <time>2022-12-26T08:23:29.200Z</time>
      </trkpt>
      <trkpt lat="44.65211" lon="-1.17808">
        <ele>58.834449</ele>
        <time>2022-12-26T08:23:32.216Z</time>
      </trkpt>
      <trkpt lat="44.65214" lon="-1.17823">
        <ele>58.464987</ele>
        <time>2022-12-26T08:23:35.191Z</time>
      </trkpt>
      <trkpt lat="44.65217" lon="-1.1784">
        <ele>58.043704</ele>
        <time>2022-12-26T08:23:38.215Z</time>
      </trkpt>
      <trkpt lat="44.65219" lon="-1.17853">
        <ele>57.713759</ele>
        <time>2022-12-26T08:23:40.212Z</time>
      </trkpt>
      <trkpt lat="44.65222" lon="-1.17869">
        <ele>57.323158</ele>
        <time>2022-12-26T08:23:42.205Z</time>
      </trkpt>
      <trkpt lat="44.65225" lon="-1.17884">
        <ele>56.939607</ele>
        <time>2022-12-26T08:23:44.190Z</time>
      </trkpt>
      <trkpt lat="44.65227" lon="-1.17898">
        <ele>56.592927</ele>
        <time>2022-12-26T08:23:46.213Z</time>
      </trkpt>
      <trkpt lat="44.65228" lon="-1.17912">
        <ele>56.259465</ele>
        <time>2022-12-26T08:23:48.190Z</time>
      </trkpt>
      <trkpt lat="44.6523" lon="-1.17929">
        <ele>55.832286</ele>
        <time>2022-12-26T08:23:51.214Z</time>
      </trkpt>
      <trkpt lat="44.65232" lon="-1.17944">
        <ele>55.464496</ele>
        <time>2022-12-26T08:23:54.191Z</time>
      </trkpt>
      <trkpt lat="44.65233" lon="-1.17958">
        <ele>55.130139</ele>
        <time>2022-12-26T08:23:57.212Z</time>
      </trkpt>
      <trkpt lat="44.65235" lon="-1.17972">
        <ele>54.770884</ele>
        <time>2022-12-26T08:24:01.197Z</time>
      </trkpt>
      <trkpt lat="44.65237" lon="-1.17986">
        <ele>54.426584</ele>
        <time>2022-12-26T08:24:05.190Z</time>
      </trkpt>
      <trkpt lat="44.65239" lon="-1.18002">
        <ele>54.027969</ele>
        <time>2022-12-26T08:24:09.186Z</time>
      </trkpt>
      <trkpt lat="44.65241" lon="-1.18015">
        <ele>53.943858</ele>
        <time>2022-12-26T08:24:12.215Z</time>
      </trkpt>
      <trkpt lat="44.65243" lon="-1.18027">
        <ele>54.205929</ele>
        <time>2022-12-26T08:24:15.206Z</time>
      </trkpt>
      <trkpt lat="44.65246" lon="-1.18041">
        <ele>54.494237</ele>
        <time>2022-12-26T08:24:18.214Z</time>
      </trkpt>
      <trkpt lat="44.65248" lon="-1.18055">
        <ele>54.801466</ele>
        <time>2022-12-26T08:24:21.191Z</time>
      </trkpt>
      <trkpt lat="44.65251" lon="-1.18069">
        <ele>55.090053</ele>
        <time>2022-12-26T08:24:24.197Z</time>
      </trkpt>
      <trkpt lat="44.65254" lon="-1.18084">
        <ele>55.420501</ele>
        <time>2022-12-26T08:24:28.211Z</time>
      </trkpt>
      <trkpt lat="44.65256" lon="-1.18097">
        <ele>55.687293</ele>
        <time>2022-12-26T08:24:32.213Z</time>
      </trkpt>
      <trkpt lat="44.65263" lon="-1.18115">
        <ele>56.126257</ele>
        <time>2022-12-26T08:25:11.216Z</time>
      </trkpt>
      <trkpt lat="44.65268" lon="-1.18127">
        <ele>56.406519</ele>
        <time>2022-12-26T08:25:15.200Z</time>
      </trkpt>
      <trkpt lat="44.65259" lon="-1.18134">
        <ele>56.709376</ele>
        <time>2022-12-26T08:25:20.210Z</time>
      </trkpt>
      <trkpt lat="44.6525" lon="-1.18132">
        <ele>56.976914</ele>
        <time>2022-12-26T08:25:24.202Z</time>
      </trkpt>
      <trkpt lat="44.6524" lon="-1.18129">
        <ele>57.281891</ele>
        <time>2022-12-26T08:25:29.208Z</time>
      </trkpt>
      <trkpt lat="44.65231" lon="-1.18121">
        <ele>57.581324</ele>
        <time>2022-12-26T08:25:34.201Z</time>
      </trkpt>
      <trkpt lat="44.65223" lon="-1.18112">
        <ele>57.872201</ele>
        <time>2022-12-26T08:25:39.193Z</time>
      </trkpt>
      <trkpt lat="44.65215" lon="-1.18102">
        <ele>58.191994</ele>
        <time>2022-12-26T08:25:44.196Z</time>
      </trkpt>
      <trkpt lat="44.65207" lon="-1.18092">
        <ele>58.504433</ele>
        <time>2022-12-26T08:25:49.195Z</time>
      </trkpt>
      <trkpt lat="44.65199" lon="-1.18081">
        <ele>58.818155</ele>
        <time>2022-12-26T08:25:55.195Z</time>
      </trkpt>
      <trkpt lat="44.65191" lon="-1.18073">
        <ele>59.115622</ele>
        <time>2022-12-26T08:25:59.200Z</time>
      </trkpt>
      <trkpt lat="44.65184" lon="-1.18064">
        <ele>59.488444</ele>
        <time>2022-12-26T08:26:04.206Z</time>
      </trkpt>
      <trkpt lat="44.65176" lon="-1.18055">
        <ele>59.871831</ele>
        <time>2022-12-26T08:26:09.206Z</time>
      </trkpt>
      <trkpt lat="44.65167" lon="-1.18048">
        <ele>60.261026</ele>
        <time>2022-12-26T08:26:14.215Z</time>
      </trkpt>
      <trkpt lat="44.65159" lon="-1.18042">
        <ele>60.612997</ele>
        <time>2022-12-26T08:26:19.206Z</time>
      </trkpt>
      <trkpt lat="44.65151" lon="-1.18035">
        <ele>60.98227</ele>
        <time>2022-12-26T08:26:24.205Z</time>
      </trkpt>
      <trkpt lat="44.65142" lon="-1.18028">
        <ele>61.363482</ele>
        <time>2022-12-26T08:26:29.200Z</time>
      </trkpt>
      <trkpt lat="44.65133" lon="-1.18024">
        <ele>61.730729</ele>
        <time>2022-12-26T08:26:34.198Z</time>
      </trkpt>
      <trkpt lat="44.65123" lon="-1.18017">
        <ele>62.151177</ele>
        <time>2022-12-26T08:26:39.212Z</time>
      </trkpt>
      <trkpt lat="44.65113" lon="-1.1801">
        <ele>62.579626</ele>
        <time>2022-12-26T08:26:44.197Z</time>
      </trkpt>
      <trkpt lat="44.65105" lon="-1.18005">
        <ele>62.929202</ele>
        <time>2022-12-26T08:26:48.199Z</time>
      </trkpt>
      <trkpt lat="44.65096" lon="-1.18">
        <ele>63.275241</ele>
        <time>2022-12-26T08:26:52.199Z</time>
      </trkpt>
      <trkpt lat="44.65086" lon="-1.17994">
        <ele>63.681029</ele>
        <time>2022-12-26T08:26:57.201Z</time>
      </trkpt>
      <trkpt lat="44.65077" lon="-1.17989">
        <ele>64.05489</ele>
        <time>2022-12-26T08:27:01.205Z</time>
      </trkpt>
      <trkpt lat="44.65069" lon="-1.17985">
        <ele>64.408666</ele>
        <time>2022-12-26T08:27:05.202Z</time>
      </trkpt>
      <trkpt lat="44.65058" lon="-1.17981">
        <ele>64.821609</ele>
        <time>2022-12-26T08:27:09.196Z</time>
      </trkpt>
      <trkpt lat="44.65047" lon="-1.17976">
        <ele>65.267667</ele>
        <time>2022-12-26T08:27:13.197Z</time>
      </trkpt>
      <trkpt lat="44.65038" lon="-1.17973">
        <ele>65.622621</ele>
        <time>2022-12-26T08:27:16.202Z</time>
      </trkpt>
      <trkpt lat="44.65027" lon="-1.17968">
        <ele>66.015781</ele>
        <time>2022-12-26T08:27:20.195Z</time>
      </trkpt>
      <trkpt lat="44.65018" lon="-1.17964">
        <ele>66.274496</ele>
        <time>2022-12-26T08:27:24.196Z</time>
      </trkpt>
      <trkpt lat="44.65009" lon="-1.1796">
        <ele>66.543683</ele>
        <time>2022-12-26T08:27:28.203Z</time>
      </trkpt>
      <trkpt lat="44.64999" lon="-1.1796">
        <ele>66.816566</ele>
        <time>2022-12-26T08:27:32.203Z</time>
      </trkpt>
      <trkpt lat="44.6499" lon="-1.17957">
        <ele>67.085571</ele>
        <time>2022-12-26T08:27:36.201Z</time>
      </trkpt>
      <trkpt lat="44.64981" lon="-1.17949">
        <ele>67.369171</ele>
        <time>2022-12-26T08:27:40.198Z</time>
      </trkpt>
      <trkpt lat="44.64971" lon="-1.17943">
        <ele>67.654484</ele>
        <time>2022-12-26T08:27:44.196Z</time>
      </trkpt>
      <trkpt lat="44.6496" lon="-1.17939">
        <ele>67.971777</ele>
        <time>2022-12-26T08:27:49.196Z</time>
      </trkpt>
      <trkpt lat="44.64951" lon="-1.17933">
        <ele>68.247594</ele>
        <time>2022-12-26T08:27:53.211Z</time>
      </trkpt>
      <trkpt lat="44.64941" lon="-1.1793">
        <ele>68.525762</ele>
        <time>2022-12-26T08:27:57.195Z</time>
      </trkpt>
      <trkpt lat="44.64932" lon="-1.17927">
        <ele>68.793736</ele>
        <time>2022-12-26T08:28:01.198Z</time>
      </trkpt>
      <trkpt lat="44.64922" lon="-1.17922">
        <ele>69.075508</ele>
        <time>2022-12-26T08:28:05.199Z</time>
      </trkpt>
      <trkpt lat="44.64912" lon="-1.17919">
        <ele>69.366809</ele>
        <time>2022-12-26T08:28:09.197Z</time>
      </trkpt>
      <trkpt lat="44.64902" lon="-1.17915">
        <ele>69.654437</ele>
        <time>2022-12-26T08:28:13.200Z</time>
      </trkpt>
      <trkpt lat="44.64892" lon="-1.17912">
        <ele>69.926201</ele>
        <time>2022-12-26T08:28:17.196Z</time>
      </trkpt>
      <trkpt lat="44.64882" lon="-1.17909">
        <ele>70.200772</ele>
        <time>2022-12-26T08:28:21.197Z</time>
      </trkpt>
      <trkpt lat="44.64873" lon="-1.17906">
        <ele>70.466598</ele>
        <time>2022-12-26T08:28:25.202Z</time>
      </trkpt>
      <trkpt lat="44.64862" lon="-1.17903">
        <ele>70.776084</ele>
        <time>2022-12-26T08:28:30.201Z</time>
      </trkpt>
      <trkpt lat="44.64852" lon="-1.17899">
        <ele>70.767424</ele>
        <time>2022-12-26T08:28:34.197Z</time>
      </trkpt>
      <trkpt lat="44.64842" lon="-1.17896">
        <ele>70.597078</ele>
        <time>2022-12-26T08:28:38.200Z</time>
      </trkpt>
      <trkpt lat="44.64832" lon="-1.17893">
        <ele>70.410948</ele>
        <time>2022-12-26T08:28:42.197Z</time>
      </trkpt>
      <trkpt lat="44.64823" lon="-1.1789">
        <ele>70.255676</ele>
        <time>2022-12-26T08:28:45.198Z</time>
      </trkpt>
      <trkpt lat="44.64813" lon="-1.17887">
        <ele>70.082455</ele>
        <time>2022-12-26T08:28:48.194Z</time>
      </trkpt>
      <trkpt lat="44.64803" lon="-1.17884">
        <ele>69.897503</ele>
        <time>2022-12-26T08:28:51.211Z</time>
      </trkpt>
      <trkpt lat="44.64792" lon="-1.17881">
        <ele>69.701942</ele>
        <time>2022-12-26T08:28:54.203Z</time>
      </trkpt>
      <trkpt lat="44.64779" lon="-1.17878">
        <ele>69.472669</ele>
        <time>2022-12-26T08:28:57.203Z</time>
      </trkpt>
      <trkpt lat="44.64766" lon="-1.17873">
        <ele>69.242737</ele>
        <time>2022-12-26T08:29:00.201Z</time>
      </trkpt>
      <trkpt lat="44.64757" lon="-1.1787">
        <ele>69.080548</ele>
        <time>2022-12-26T08:29:02.198Z</time>
      </trkpt>
      <trkpt lat="44.64748" lon="-1.17868">
        <ele>68.923093</ele>
        <time>2022-12-26T08:29:04.198Z</time>
      </trkpt>
      <trkpt lat="44.64738" lon="-1.17865">
        <ele>68.749621</ele>
        <time>2022-12-26T08:29:06.196Z</time>
      </trkpt>
      <trkpt lat="44.64728" lon="-1.17862">
        <ele>68.575625</ele>
        <time>2022-12-26T08:29:08.188Z</time>
      </trkpt>
      <trkpt lat="44.64719" lon="-1.17859">
        <ele>68.405797</ele>
        <time>2022-12-26T08:29:10.200Z</time>
      </trkpt>
      <trkpt lat="44.64708" lon="-1.17855">
        <ele>68.213817</ele>
        <time>2022-12-26T08:29:12.197Z</time>
      </trkpt>
      <trkpt lat="44.64697" lon="-1.17853">
        <ele>68.030441</ele>
        <time>2022-12-26T08:29:14.201Z</time>
      </trkpt>
      <trkpt lat="44.64687" lon="-1.17851">
        <ele>67.841916</ele>
        <time>2022-12-26T08:29:16.195Z</time>
      </trkpt>
      <trkpt lat="44.64676" lon="-1.17847">
        <ele>67.767404</ele>
        <time>2022-12-26T08:29:18.199Z</time>
      </trkpt>
      <trkpt lat="44.64665" lon="-1.17843">
        <ele>67.767583</ele>
        <time>2022-12-26T08:29:20.201Z</time>
      </trkpt>
      <trkpt lat="44.64656" lon="-1.1784">
        <ele>67.767739</ele>
        <time>2022-12-26T08:29:22.199Z</time>
      </trkpt>
      <trkpt lat="44.64646" lon="-1.17837">
        <ele>67.767899</ele>
        <time>2022-12-26T08:29:24.221Z</time>
      </trkpt>
      <trkpt lat="44.64636" lon="-1.17835">
        <ele>67.768061</ele>
        <time>2022-12-26T08:29:26.197Z</time>
      </trkpt>
      <trkpt lat="44.64626" lon="-1.17832">
        <ele>67.768226</ele>
        <time>2022-12-26T08:29:28.199Z</time>
      </trkpt>
      <trkpt lat="44.64614" lon="-1.17829">
        <ele>67.76842</ele>
        <time>2022-12-26T08:29:31.201Z</time>
      </trkpt>
      <trkpt lat="44.64604" lon="-1.17835">
        <ele>67.768599</ele>
        <time>2022-12-26T08:29:34.200Z</time>
      </trkpt>
      <trkpt lat="44.64597" lon="-1.17843">
        <ele>67.768749</ele>
        <time>2022-12-26T08:29:38.200Z</time>
      </trkpt>
      <trkpt lat="44.64588" lon="-1.17845">
        <ele>67.768905</ele>
        <time>2022-12-26T08:29:43.202Z</time>
      </trkpt>
      <trkpt lat="44.64579" lon="-1.17836">
        <ele>67.769075</ele>
        <time>2022-12-26T08:29:47.202Z</time>
      </trkpt>
      <trkpt lat="44.64571" lon="-1.17827">
        <ele>67.769241</ele>
        <time>2022-12-26T08:29:51.229Z</time>
      </trkpt>
      <trkpt lat="44.64563" lon="-1.17818">
        <ele>67.769409</ele>
        <time>2022-12-26T08:29:55.201Z</time>
      </trkpt>
      <trkpt lat="44.64555" lon="-1.1781">
        <ele>67.769569</ele>
        <time>2022-12-26T08:29:59.191Z</time>
      </trkpt>
      <trkpt lat="44.64547" lon="-1.17802">
        <ele>67.769732</ele>
        <time>2022-12-26T08:30:03.197Z</time>
      </trkpt>
      <trkpt lat="44.64538" lon="-1.17794">
        <ele>67.769894</ele>
        <time>2022-12-26T08:30:07.196Z</time>
      </trkpt>
      <trkpt lat="44.6453" lon="-1.17786">
        <ele>67.770067</ele>
        <time>2022-12-26T08:30:11.211Z</time>
      </trkpt>
      <trkpt lat="44.64521" lon="-1.17777">
        <ele>67.825421</ele>
        <time>2022-12-26T08:30:15.199Z</time>
      </trkpt>
      <trkpt lat="44.64511" lon="-1.17769">
        <ele>68.164602</ele>
        <time>2022-12-26T08:30:19.207Z</time>
      </trkpt>
      <trkpt lat="44.64504" lon="-1.1776">
        <ele>68.466289</ele>
        <time>2022-12-26T08:30:23.198Z</time>
      </trkpt>
      <trkpt lat="44.64496" lon="-1.1775">
        <ele>68.777144</ele>
        <time>2022-12-26T08:30:27.208Z</time>
      </trkpt>
      <trkpt lat="44.64488" lon="-1.17742">
        <ele>69.079506</ele>
        <time>2022-12-26T08:30:31.192Z</time>
      </trkpt>
      <trkpt lat="44.6448" lon="-1.17733">
        <ele>69.391765</ele>
        <time>2022-12-26T08:30:35.206Z</time>
      </trkpt>
      <trkpt lat="44.64472" lon="-1.17723">
        <ele>69.711453</ele>
        <time>2022-12-26T08:30:40.205Z</time>
      </trkpt>
      <trkpt lat="44.64466" lon="-1.17714">
        <ele>69.99122</ele>
        <time>2022-12-26T08:30:44.213Z</time>
      </trkpt>
      <trkpt lat="44.64459" lon="-1.17704">
        <ele>70.298228</ele>
        <time>2022-12-26T08:30:48.203Z</time>
      </trkpt>
      <trkpt lat="44.64452" lon="-1.17693">
        <ele>70.59635</ele>
        <time>2022-12-26T08:30:52.204Z</time>
      </trkpt>
      <trkpt lat="44.64446" lon="-1.17681">
        <ele>70.934631</ele>
        <time>2022-12-26T08:30:57.196Z</time>
      </trkpt>
      <trkpt lat="44.64441" lon="-1.1767">
        <ele>71.211244</ele>
        <time>2022-12-26T08:31:01.200Z</time>
      </trkpt>
      <trkpt lat="44.64435" lon="-1.17659">
        <ele>71.502105</ele>
        <time>2022-12-26T08:31:05.191Z</time>
      </trkpt>
      <trkpt lat="44.64429" lon="-1.17649">
        <ele>71.791249</ele>
        <time>2022-12-26T08:31:09.195Z</time>
      </trkpt>
      <trkpt lat="44.64424" lon="-1.17636">
        <ele>72.11458</ele>
        <time>2022-12-26T08:31:13.197Z</time>
      </trkpt>
      <trkpt lat="44.64419" lon="-1.17623">
        <ele>72.432687</ele>
        <time>2022-12-26T08:31:17.196Z</time>
      </trkpt>
      <trkpt lat="44.64413" lon="-1.1761">
        <ele>72.759728</ele>
        <time>2022-12-26T08:31:21.213Z</time>
      </trkpt>
      <trkpt lat="44.64407" lon="-1.17597">
        <ele>73.098426</ele>
        <time>2022-12-26T08:31:25.201Z</time>
      </trkpt>
      <trkpt lat="44.64402" lon="-1.17582">
        <ele>73.408392</ele>
        <time>2022-12-26T08:31:29.198Z</time>
      </trkpt>
      <trkpt lat="44.64397" lon="-1.17568">
        <ele>73.669345</ele>
        <time>2022-12-26T08:31:33.200Z</time>
      </trkpt>
      <trkpt lat="44.64392" lon="-1.17554">
        <ele>73.93337</ele>
        <time>2022-12-26T08:31:37.202Z</time>
      </trkpt>
      <trkpt lat="44.64388" lon="-1.17543">
        <ele>74.153165</ele>
        <time>2022-12-26T08:31:40.211Z</time>
      </trkpt>
      <trkpt lat="44.64383" lon="-1.17529">
        <ele>74.429553</ele>
        <time>2022-12-26T08:31:44.217Z</time>
      </trkpt>
      <trkpt lat="44.6438" lon="-1.17517">
        <ele>74.649593</ele>
        <time>2022-12-26T08:31:47.201Z</time>
      </trkpt>
      <trkpt lat="44.64375" lon="-1.17505">
        <ele>74.878019</ele>
        <time>2022-12-26T08:31:50.196Z</time>
      </trkpt>
      <trkpt lat="44.64371" lon="-1.17494">
        <ele>75.096329</ele>
        <time>2022-12-26T08:31:53.204Z</time>
      </trkpt>
      <trkpt lat="44.64364" lon="-1.1748">
        <ele>75.381245</ele>
        <time>2022-12-26T08:31:57.197Z</time>
      </trkpt>
      <trkpt lat="44.64359" lon="-1.17469">
        <ele>75.601239</ele>
        <time>2022-12-26T08:32:00.203Z</time>
      </trkpt>
      <trkpt lat="44.64354" lon="-1.17459">
        <ele>75.821234</ele>
        <time>2022-12-26T08:32:03.204Z</time>
      </trkpt>
      <trkpt lat="44.64348" lon="-1.17446">
        <ele>76.083078</ele>
        <time>2022-12-26T08:32:07.196Z</time>
      </trkpt>
      <trkpt lat="44.64341" lon="-1.17434">
        <ele>76.347791</ele>
        <time>2022-12-26T08:32:11.200Z</time>
      </trkpt>
      <trkpt lat="44.64334" lon="-1.17421">
        <ele>76.624136</ele>
        <time>2022-12-26T08:32:15.199Z</time>
      </trkpt>
      <trkpt lat="44.64326" lon="-1.17409">
        <ele>76.898122</ele>
        <time>2022-12-26T08:32:19.214Z</time>
      </trkpt>
      <trkpt lat="44.64318" lon="-1.17398">
        <ele>77.163447</ele>
        <time>2022-12-26T08:32:23.194Z</time>
      </trkpt>
      <trkpt lat="44.64311" lon="-1.17387">
        <ele>77.415114</ele>
        <time>2022-12-26T08:32:28.205Z</time>
      </trkpt>
      <trkpt lat="44.64308" lon="-1.17375">
        <ele>77.545867</ele>
        <time>2022-12-26T08:32:42.201Z</time>
      </trkpt>
      <trkpt lat="44.643" lon="-1.17367">
        <ele>77.515001</ele>
        <time>2022-12-26T08:32:47.213Z</time>
      </trkpt>
      <trkpt lat="44.64294" lon="-1.17358">
        <ele>77.485924</ele>
        <time>2022-12-26T08:32:50.202Z</time>
      </trkpt>
      <trkpt lat="44.64286" lon="-1.17348">
        <ele>77.453389</ele>
        <time>2022-12-26T08:32:53.204Z</time>
      </trkpt>
      <trkpt lat="44.64277" lon="-1.17339">
        <ele>77.4188</ele>
        <time>2022-12-26T08:32:56.205Z</time>
      </trkpt>
      <trkpt lat="44.64268" lon="-1.1733">
        <ele>77.385631</ele>
        <time>2022-12-26T08:32:59.198Z</time>
      </trkpt>
      <trkpt lat="44.64261" lon="-1.17322">
        <ele>77.355283</ele>
        <time>2022-12-26T08:33:02.194Z</time>
      </trkpt>
      <trkpt lat="44.64253" lon="-1.17315">
        <ele>77.325555</ele>
        <time>2022-12-26T08:33:05.207Z</time>
      </trkpt>
      <trkpt lat="44.64245" lon="-1.17308">
        <ele>77.297065</ele>
        <time>2022-12-26T08:33:08.198Z</time>
      </trkpt>
      <trkpt lat="44.64235" lon="-1.17302">
        <ele>77.263249</ele>
        <time>2022-12-26T08:33:12.212Z</time>
      </trkpt>
      <trkpt lat="44.64229" lon="-1.17291">
        <ele>77.232125</ele>
        <time>2022-12-26T08:33:17.198Z</time>
      </trkpt>
      <trkpt lat="44.64222" lon="-1.17282">
        <ele>77.202657</ele>
        <time>2022-12-26T08:33:22.212Z</time>
      </trkpt>
      <trkpt lat="44.6421" lon="-1.17279">
        <ele>77.164043</ele>
        <time>2022-12-26T08:33:26.204Z</time>
      </trkpt>
      <trkpt lat="44.64199" lon="-1.17278">
        <ele>77.130453</ele>
        <time>2022-12-26T08:33:29.204Z</time>
      </trkpt>
      <trkpt lat="44.64189" lon="-1.17275">
        <ele>77.097436</ele>
        <time>2022-12-26T08:33:32.205Z</time>
      </trkpt>
      <trkpt lat="44.64178" lon="-1.17273">
        <ele>77.064648</ele>
        <time>2022-12-26T08:33:35.208Z</time>
      </trkpt>
      <trkpt lat="44.64168" lon="-1.1727">
        <ele>77.031511</ele>
        <time>2022-12-26T08:33:38.201Z</time>
      </trkpt>
      <trkpt lat="44.64157" lon="-1.17268">
        <ele>76.997329</ele>
        <time>2022-12-26T08:33:41.215Z</time>
      </trkpt>
      <trkpt lat="44.64146" lon="-1.17265">
        <ele>77.228457</ele>
        <time>2022-12-26T08:33:44.234Z</time>
      </trkpt>
      <trkpt lat="44.64136" lon="-1.17264">
        <ele>77.474767</ele>
        <time>2022-12-26T08:33:47.195Z</time>
      </trkpt>
      <trkpt lat="44.64126" lon="-1.17262">
        <ele>77.718705</ele>
        <time>2022-12-26T08:33:50.202Z</time>
      </trkpt>
      <trkpt lat="44.64115" lon="-1.1726">
        <ele>77.986192</ele>
        <time>2022-12-26T08:33:53.207Z</time>
      </trkpt>
      <trkpt lat="44.64105" lon="-1.17257">
        <ele>78.214052</ele>
        <time>2022-12-26T08:33:56.197Z</time>
      </trkpt>
      <trkpt lat="44.64096" lon="-1.17256">
        <ele>78.44194</ele>
        <time>2022-12-26T08:33:59.198Z</time>
      </trkpt>
      <trkpt lat="44.64085" lon="-1.17253">
        <ele>78.707157</ele>
        <time>2022-12-26T08:34:02.212Z</time>
      </trkpt>
      <trkpt lat="44.64074" lon="-1.1725">
        <ele>78.971381</ele>
        <time>2022-12-26T08:34:05.199Z</time>
      </trkpt>
      <trkpt lat="44.64064" lon="-1.17248">
        <ele>79.21623</ele>
        <time>2022-12-26T08:34:08.202Z</time>
      </trkpt>
      <trkpt lat="44.64054" lon="-1.17246">
        <ele>79.4479</ele>
        <time>2022-12-26T08:34:11.199Z</time>
      </trkpt>
      <trkpt lat="44.64045" lon="-1.17243">
        <ele>79.665774</ele>
        <time>2022-12-26T08:34:14.207Z</time>
      </trkpt>
      <trkpt lat="44.64034" lon="-1.1724">
        <ele>79.93468</ele>
        <time>2022-12-26T08:34:18.197Z</time>
      </trkpt>
      <trkpt lat="44.64023" lon="-1.17239">
        <ele>80.193165</ele>
        <time>2022-12-26T08:34:22.205Z</time>
      </trkpt>
      <trkpt lat="44.64011" lon="-1.17236">
        <ele>80.480001</ele>
        <time>2022-12-26T08:34:26.197Z</time>
      </trkpt>
      <trkpt lat="44.64001" lon="-1.17234">
        <ele>80.723974</ele>
        <time>2022-12-26T08:34:30.204Z</time>
      </trkpt>
      <trkpt lat="44.6399" lon="-1.17231">
        <ele>80.991872</ele>
        <time>2022-12-26T08:34:34.200Z</time>
      </trkpt>
      <trkpt lat="44.63979" lon="-1.17228">
        <ele>81.256507</ele>
        <time>2022-12-26T08:34:38.209Z</time>
      </trkpt>
      <trkpt lat="44.63967" lon="-1.17228">
        <ele>81.587704</ele>
        <time>2022-12-26T08:34:42.202Z</time>
      </trkpt>
      <trkpt lat="44.63956" lon="-1.17226">
        <ele>81.901037</ele>
        <time>2022-12-26T08:34:46.201Z</time>
      </trkpt>
      <trkpt lat="44.63945" lon="-1.17224">
        <ele>82.206374</ele>
        <time>2022-12-26T08:34:50.195Z</time>
      </trkpt>
      <trkpt lat="44.63935" lon="-1.17221">
        <ele>82.502501</ele>
        <time>2022-12-26T08:34:54.220Z</time>
      </trkpt>
      <trkpt lat="44.63925" lon="-1.17219">
        <ele>82.783906</ele>
        <time>2022-12-26T08:34:58.207Z</time>
      </trkpt>
      <trkpt lat="44.63913" lon="-1.17216">
        <ele>83.102986</ele>
        <time>2022-12-26T08:35:02.220Z</time>
      </trkpt>
      <trkpt lat="44.63902" lon="-1.17212">
        <ele>83.421149</ele>
        <time>2022-12-26T08:35:06.198Z</time>
      </trkpt>
      <trkpt lat="44.63892" lon="-1.17209">
        <ele>83.718964</ele>
        <time>2022-12-26T08:35:10.270Z</time>
      </trkpt>
      <trkpt lat="44.63882" lon="-1.17206">
        <ele>84.012915</ele>
        <time>2022-12-26T08:35:15.191Z</time>
      </trkpt>
      <trkpt lat="44.63872" lon="-1.17202">
        <ele>84.295177</ele>
        <time>2022-12-26T08:35:19.207Z</time>
      </trkpt>
      <trkpt lat="44.63862" lon="-1.17199">
        <ele>84.580537</ele>
        <time>2022-12-26T08:35:23.227Z</time>
      </trkpt>
      <trkpt lat="44.63852" lon="-1.17196">
        <ele>84.87053</ele>
        <time>2022-12-26T08:35:27.271Z</time>
      </trkpt>
      <trkpt lat="44.63842" lon="-1.17193">
        <ele>85.13831</ele>
        <time>2022-12-26T08:35:31.215Z</time>
      </trkpt>
      <trkpt lat="44.63833" lon="-1.17189">
        <ele>85.42108</ele>
        <time>2022-12-26T08:35:35.217Z</time>
      </trkpt>
      <trkpt lat="44.63823" lon="-1.17186">
        <ele>85.701898</ele>
        <time>2022-12-26T08:35:40.206Z</time>
      </trkpt>
      <trkpt lat="44.63813" lon="-1.17183">
        <ele>85.988392</ele>
        <time>2022-12-26T08:35:44.271Z</time>
      </trkpt>
      <trkpt lat="44.63802" lon="-1.1718">
        <ele>86.287787</ele>
        <time>2022-12-26T08:35:48.220Z</time>
      </trkpt>
      <trkpt lat="44.63792" lon="-1.17175">
        <ele>85.992044</ele>
        <time>2022-12-26T08:35:52.216Z</time>
      </trkpt>
      <trkpt lat="44.63783" lon="-1.17171">
        <ele>85.72551</ele>
        <time>2022-12-26T08:35:56.267Z</time>
      </trkpt>
      <trkpt lat="44.63774" lon="-1.17166">
        <ele>85.450938</ele>
        <time>2022-12-26T08:36:00.221Z</time>
      </trkpt>
      <trkpt lat="44.63765" lon="-1.17159">
        <ele>85.143111</ele>
        <time>2022-12-26T08:36:04.215Z</time>
      </trkpt>
      <trkpt lat="44.63756" lon="-1.17153">
        <ele>84.858716</ele>
        <time>2022-12-26T08:36:08.200Z</time>
      </trkpt>
      <trkpt lat="44.63748" lon="-1.17145">
        <ele>84.588558</ele>
        <time>2022-12-26T08:36:11.207Z</time>
      </trkpt>
      <trkpt lat="44.63739" lon="-1.17138">
        <ele>84.295784</ele>
        <time>2022-12-26T08:36:14.213Z</time>
      </trkpt>
      <trkpt lat="44.6373" lon="-1.17131">
        <ele>84.002482</ele>
        <time>2022-12-26T08:36:17.215Z</time>
      </trkpt>
      <trkpt lat="44.63721" lon="-1.17121">
        <ele>83.672847</ele>
        <time>2022-12-26T08:36:20.219Z</time>
      </trkpt>
      <trkpt lat="44.63712" lon="-1.17111">
        <ele>83.348792</ele>
        <time>2022-12-26T08:36:23.218Z</time>
      </trkpt>
      <trkpt lat="44.63702" lon="-1.17105">
        <ele>83.026594</ele>
        <time>2022-12-26T08:36:26.214Z</time>
      </trkpt>
      <trkpt lat="44.63693" lon="-1.17101">
        <ele>82.76134</ele>
        <time>2022-12-26T08:36:29.215Z</time>
      </trkpt>
      <trkpt lat="44.63682" lon="-1.17102">
        <ele>82.450679</ele>
        <time>2022-12-26T08:36:32.212Z</time>
      </trkpt>
      <trkpt lat="44.63672" lon="-1.17103">
        <ele>82.174121</ele>
        <time>2022-12-26T08:36:34.215Z</time>
      </trkpt>
      <trkpt lat="44.63663" lon="-1.171">
        <ele>81.902551</ele>
        <time>2022-12-26T08:36:36.263Z</time>
      </trkpt>
      <trkpt lat="44.63651" lon="-1.17097">
        <ele>81.579203</ele>
        <time>2022-12-26T08:36:39.218Z</time>
      </trkpt>
      <trkpt lat="44.6364" lon="-1.17092">
        <ele>81.244878</ele>
        <time>2022-12-26T08:36:42.216Z</time>
      </trkpt>
      <trkpt lat="44.63628" lon="-1.17085">
        <ele>80.526948</ele>
        <time>2022-12-26T08:36:45.220Z</time>
      </trkpt>
      <trkpt lat="44.63618" lon="-1.17078">
        <ele>79.77297</ele>
        <time>2022-12-26T08:36:48.202Z</time>
      </trkpt>
      <trkpt lat="44.63607" lon="-1.17072">
        <ele>79.06801</ele>
        <time>2022-12-26T08:36:51.217Z</time>
      </trkpt>
      <trkpt lat="44.63595" lon="-1.17064">
        <ele>78.206431</ele>
        <time>2022-12-26T08:36:54.218Z</time>
      </trkpt>
      <trkpt lat="44.63582" lon="-1.17059">
        <ele>77.400647</ele>
        <time>2022-12-26T08:36:57.219Z</time>
      </trkpt>
      <trkpt lat="44.6357" lon="-1.17055">
        <ele>76.571415</ele>
        <time>2022-12-26T08:37:00.197Z</time>
      </trkpt>
      <trkpt lat="44.63558" lon="-1.17054">
        <ele>75.821117</ele>
        <time>2022-12-26T08:37:03.224Z</time>
      </trkpt>
      <trkpt lat="44.63547" lon="-1.17055">
        <ele>75.127614</ele>
        <time>2022-12-26T08:37:06.220Z</time>
      </trkpt>
      <trkpt lat="44.63535" lon="-1.17055">
        <ele>74.391504</ele>
        <time>2022-12-26T08:37:09.216Z</time>
      </trkpt>
      <trkpt lat="44.63523" lon="-1.17052">
        <ele>73.655668</ele>
        <time>2022-12-26T08:37:12.202Z</time>
      </trkpt>
      <trkpt lat="44.63512" lon="-1.1705">
        <ele>72.951538</ele>
        <time>2022-12-26T08:37:15.221Z</time>
      </trkpt>
      <trkpt lat="44.635" lon="-1.17044">
        <ele>72.160563</ele>
        <time>2022-12-26T08:37:18.199Z</time>
      </trkpt>
      <trkpt lat="44.6349" lon="-1.17037">
        <ele>71.444598</ele>
        <time>2022-12-26T08:37:21.209Z</time>
      </trkpt>
      <trkpt lat="44.63481" lon="-1.17029">
        <ele>70.764863</ele>
        <time>2022-12-26T08:37:24.216Z</time>
      </trkpt>
      <trkpt lat="44.63471" lon="-1.17018">
        <ele>69.97202</ele>
        <time>2022-12-26T08:37:27.216Z</time>
      </trkpt>
      <trkpt lat="44.63462" lon="-1.17004">
        <ele>69.061907</ele>
        <time>2022-12-26T08:37:30.216Z</time>
      </trkpt>
      <trkpt lat="44.63456" lon="-1.16988">
        <ele>68.156952</ele>
        <time>2022-12-26T08:37:33.304Z</time>
      </trkpt>
      <trkpt lat="44.6345" lon="-1.16972">
        <ele>67.265291</ele>
        <time>2022-12-26T08:37:36.214Z</time>
      </trkpt>
      <trkpt lat="44.63445" lon="-1.1696">
        <ele>66.591783</ele>
        <time>2022-12-26T08:37:38.217Z</time>
      </trkpt>
      <trkpt lat="44.63441" lon="-1.16944">
        <ele>65.73584</ele>
        <time>2022-12-26T08:37:41.191Z</time>
      </trkpt>
      <trkpt lat="44.63436" lon="-1.1693">
        <ele>64.949929</ele>
        <time>2022-12-26T08:37:44.205Z</time>
      </trkpt>
      <trkpt lat="44.63431" lon="-1.16913">
        <ele>64.070267</ele>
        <time>2022-12-26T08:37:47.218Z</time>
      </trkpt>
      <trkpt lat="44.63425" lon="-1.16896">
        <ele>63.143425</ele>
        <time>2022-12-26T08:37:50.221Z</time>
      </trkpt>
      <trkpt lat="44.63421" lon="-1.16881">
        <ele>62.351751</ele>
        <time>2022-12-26T08:37:53.223Z</time>
      </trkpt>
      <trkpt lat="44.63417" lon="-1.16867">
        <ele>61.615429</ele>
        <time>2022-12-26T08:37:56.232Z</time>
      </trkpt>
      <trkpt lat="44.63413" lon="-1.16853">
        <ele>60.884711</ele>
        <time>2022-12-26T08:37:59.222Z</time>
      </trkpt>
      <trkpt lat="44.6341" lon="-1.16841">
        <ele>60.229863</ele>
        <time>2022-12-26T08:38:02.201Z</time>
      </trkpt>
      <trkpt lat="44.63407" lon="-1.16825">
        <ele>59.426581</ele>
        <time>2022-12-26T08:38:06.222Z</time>
      </trkpt>
      <trkpt lat="44.63402" lon="-1.16812">
        <ele>58.701663</ele>
        <time>2022-12-26T08:38:10.216Z</time>
      </trkpt>
      <trkpt lat="44.63394" lon="-1.16794">
        <ele>57.635117</ele>
        <time>2022-12-26T08:39:39.217Z</time>
      </trkpt>
      <trkpt lat="44.6339" lon="-1.1678">
        <ele>57.431144</ele>
        <time>2022-12-26T08:39:42.207Z</time>
      </trkpt>
      <trkpt lat="44.63385" lon="-1.16767">
        <ele>57.461977</ele>
        <time>2022-12-26T08:39:45.214Z</time>
      </trkpt>
      <trkpt lat="44.63383" lon="-1.16755">
        <ele>57.490117</ele>
        <time>2022-12-26T08:39:48.196Z</time>
      </trkpt>
      <trkpt lat="44.6338" lon="-1.16739">
        <ele>57.525135</ele>
        <time>2022-12-26T08:39:52.217Z</time>
      </trkpt>
      <trkpt lat="44.63378" lon="-1.16723">
        <ele>57.558687</ele>
        <time>2022-12-26T08:39:56.192Z</time>
      </trkpt>
      <trkpt lat="44.63376" lon="-1.16707">
        <ele>57.593066</ele>
        <time>2022-12-26T08:40:01.192Z</time>
      </trkpt>
      <trkpt lat="44.63376" lon="-1.16691">
        <ele>57.627662</ele>
        <time>2022-12-26T08:40:05.197Z</time>
      </trkpt>
      <trkpt lat="44.63373" lon="-1.16679">
        <ele>57.654968</ele>
        <time>2022-12-26T08:40:08.210Z</time>
      </trkpt>
      <trkpt lat="44.63372" lon="-1.16665">
        <ele>57.68429</ele>
        <time>2022-12-26T08:40:11.207Z</time>
      </trkpt>
      <trkpt lat="44.6337" lon="-1.1665">
        <ele>57.71767</ele>
        <time>2022-12-26T08:40:14.207Z</time>
      </trkpt>
      <trkpt lat="44.63368" lon="-1.16634">
        <ele>57.751838</ele>
        <time>2022-12-26T08:40:17.202Z</time>
      </trkpt>
      <trkpt lat="44.63366" lon="-1.16619">
        <ele>57.784688</ele>
        <time>2022-12-26T08:40:20.200Z</time>
      </trkpt>
      <trkpt lat="44.63365" lon="-1.16605">
        <ele>57.81638</ele>
        <time>2022-12-26T08:40:23.200Z</time>
      </trkpt>
      <trkpt lat="44.63363" lon="-1.16592">
        <ele>57.843699</ele>
        <time>2022-12-26T08:40:27.197Z</time>
      </trkpt>
      <trkpt lat="44.63362" lon="-1.16578">
        <ele>57.873841</ele>
        <time>2022-12-26T08:40:32.201Z</time>
      </trkpt>
      <trkpt lat="44.6336" lon="-1.16562">
        <ele>57.909225</ele>
        <time>2022-12-26T08:40:36.194Z</time>
      </trkpt>
      <trkpt lat="44.63358" lon="-1.16549">
        <ele>57.937783</ele>
        <time>2022-12-26T08:40:39.212Z</time>
      </trkpt>
      <trkpt lat="44.63357" lon="-1.16536">
        <ele>57.861312</ele>
        <time>2022-12-26T08:40:42.199Z</time>
      </trkpt>
      <trkpt lat="44.63355" lon="-1.1652">
        <ele>57.660861</ele>
        <time>2022-12-26T08:40:46.198Z</time>
      </trkpt>
      <trkpt lat="44.63353" lon="-1.16507">
        <ele>57.483994</ele>
        <time>2022-12-26T08:40:49.195Z</time>
      </trkpt>
      <trkpt lat="44.63351" lon="-1.16493">
        <ele>57.307004</ele>
        <time>2022-12-26T08:40:52.211Z</time>
      </trkpt>
      <trkpt lat="44.6335" lon="-1.16479">
        <ele>57.12972</ele>
        <time>2022-12-26T08:40:55.201Z</time>
      </trkpt>
      <trkpt lat="44.63348" lon="-1.16465">
        <ele>56.949661</ele>
        <time>2022-12-26T08:40:58.195Z</time>
      </trkpt>
      <trkpt lat="44.63347" lon="-1.16449">
        <ele>56.743644</ele>
        <time>2022-12-26T08:41:01.198Z</time>
      </trkpt>
      <trkpt lat="44.63345" lon="-1.16432">
        <ele>56.517339</ele>
        <time>2022-12-26T08:41:04.199Z</time>
      </trkpt>
      <trkpt lat="44.63343" lon="-1.16413">
        <ele>56.27684</ele>
        <time>2022-12-26T08:41:07.197Z</time>
      </trkpt>
      <trkpt lat="44.63342" lon="-1.16399">
        <ele>56.100423</ele>
        <time>2022-12-26T08:41:09.199Z</time>
      </trkpt>
      <trkpt lat="44.63341" lon="-1.16385">
        <ele>55.926536</ele>
        <time>2022-12-26T08:41:11.197Z</time>
      </trkpt>
      <trkpt lat="44.63341" lon="-1.16372">
        <ele>55.760854</ele>
        <time>2022-12-26T08:41:13.198Z</time>
      </trkpt>
      <trkpt lat="44.63341" lon="-1.16353">
        <ele>55.515291</ele>
        <time>2022-12-26T08:41:16.204Z</time>
      </trkpt>
      <trkpt lat="44.63341" lon="-1.16339">
        <ele>55.341044</ele>
        <time>2022-12-26T08:41:18.192Z</time>
      </trkpt>
      <trkpt lat="44.63342" lon="-1.16326">
        <ele>55.173663</ele>
        <time>2022-12-26T08:41:20.200Z</time>
      </trkpt>
      <trkpt lat="44.63342" lon="-1.16312">
        <ele>54.995574</ele>
        <time>2022-12-26T08:41:22.204Z</time>
      </trkpt>
      <trkpt lat="44.63343" lon="-1.16299">
        <ele>54.819737</ele>
        <time>2022-12-26T08:41:24.227Z</time>
      </trkpt>
      <trkpt lat="44.63344" lon="-1.16281">
        <ele>54.612906</ele>
        <time>2022-12-26T08:41:27.207Z</time>
      </trkpt>
      <trkpt lat="44.63346" lon="-1.16264">
        <ele>54.430327</ele>
        <time>2022-12-26T08:41:30.197Z</time>
      </trkpt>
      <trkpt lat="44.63348" lon="-1.16248">
        <ele>54.245309</ele>
        <time>2022-12-26T08:41:33.209Z</time>
      </trkpt>
      <trkpt lat="44.6335" lon="-1.16231">
        <ele>54.065499</ele>
        <time>2022-12-26T08:41:36.211Z</time>
      </trkpt>
      <trkpt lat="44.63352" lon="-1.16216">
        <ele>53.891278</ele>
        <time>2022-12-26T08:41:39.196Z</time>
      </trkpt>
      <trkpt lat="44.63354" lon="-1.162">
        <ele>53.716458</ele>
        <time>2022-12-26T08:41:42.199Z</time>
      </trkpt>
      <trkpt lat="44.63356" lon="-1.16186">
        <ele>53.560674</ele>
        <time>2022-12-26T08:41:45.205Z</time>
      </trkpt>
      <trkpt lat="44.63357" lon="-1.16172">
        <ele>53.407977</ele>
        <time>2022-12-26T08:41:48.210Z</time>
      </trkpt>
      <trkpt lat="44.63359" lon="-1.16159">
        <ele>53.263897</ele>
        <time>2022-12-26T08:41:51.210Z</time>
      </trkpt>
      <trkpt lat="44.6336" lon="-1.16145">
        <ele>53.102287</ele>
        <time>2022-12-26T08:41:55.200Z</time>
      </trkpt>
      <trkpt lat="44.63366" lon="-1.1612">
        <ele>52.81601</ele>
        <time>2022-12-26T08:42:29.217Z</time>
      </trkpt>
      <trkpt lat="44.63368" lon="-1.16104">
        <ele>52.637178</ele>
        <time>2022-12-26T08:42:33.211Z</time>
      </trkpt>
      <trkpt lat="44.6337" lon="-1.16091">
        <ele>52.490421</ele>
        <time>2022-12-26T08:42:36.206Z</time>
      </trkpt>
      <trkpt lat="44.63372" lon="-1.16076">
        <ele>52.330198</ele>
        <time>2022-12-26T08:42:39.202Z</time>
      </trkpt>
      <trkpt lat="44.63374" lon="-1.16063">
        <ele>52.180718</ele>
        <time>2022-12-26T08:42:42.210Z</time>
      </trkpt>
      <trkpt lat="44.63377" lon="-1.16051">
        <ele>52.040537</ele>
        <time>2022-12-26T08:42:45.199Z</time>
      </trkpt>
      <trkpt lat="44.63379" lon="-1.16037">
        <ele>51.890874</ele>
        <time>2022-12-26T08:42:49.200Z</time>
      </trkpt>
      <trkpt lat="44.63381" lon="-1.16013">
        <ele>51.634528</ele>
        <time>2022-12-26T08:43:34.205Z</time>
      </trkpt>
      <trkpt lat="44.63384" lon="-1.15996">
        <ele>51.456859</ele>
        <time>2022-12-26T08:43:38.205Z</time>
      </trkpt>
      <trkpt lat="44.63385" lon="-1.15983">
        <ele>51.320181</ele>
        <time>2022-12-26T08:43:41.193Z</time>
      </trkpt>
      <trkpt lat="44.63388" lon="-1.15969">
        <ele>51.168632</ele>
        <time>2022-12-26T08:43:58.197Z</time>
      </trkpt>
      <trkpt lat="44.6339" lon="-1.15955">
        <ele>51.013676</ele>
        <time>2022-12-26T08:44:02.203Z</time>
      </trkpt>
      <trkpt lat="44.63393" lon="-1.15942">
        <ele>50.870908</ele>
        <time>2022-12-26T08:44:05.213Z</time>
      </trkpt>
      <trkpt lat="44.63396" lon="-1.15927">
        <ele>50.707117</ele>
        <time>2022-12-26T08:44:09.192Z</time>
      </trkpt>
      <trkpt lat="44.63396" lon="-1.15912">
        <ele>50.549758</ele>
        <time>2022-12-26T08:44:13.200Z</time>
      </trkpt>
      <trkpt lat="44.63399" lon="-1.15898">
        <ele>50.40061</ele>
        <time>2022-12-26T08:44:16.224Z</time>
      </trkpt>
      <trkpt lat="44.63398" lon="-1.15884">
        <ele>50.256038</ele>
        <time>2022-12-26T08:44:20.223Z</time>
      </trkpt>
      <trkpt lat="44.63395" lon="-1.15869">
        <ele>50.093206</ele>
        <time>2022-12-26T08:44:24.198Z</time>
      </trkpt>
      <trkpt lat="44.63386" lon="-1.15863">
        <ele>49.943296</ele>
        <time>2022-12-26T08:44:27.196Z</time>
      </trkpt>
      <trkpt lat="44.63375" lon="-1.15861">
        <ele>49.783092</ele>
        <time>2022-12-26T08:44:30.200Z</time>
      </trkpt>
      <trkpt lat="44.63364" lon="-1.15859">
        <ele>49.625808</ele>
        <time>2022-12-26T08:44:33.192Z</time>
      </trkpt>
      <trkpt lat="44.63354" lon="-1.15855">
        <ele>49.472694</ele>
        <time>2022-12-26T08:44:36.205Z</time>
      </trkpt>
      <trkpt lat="44.63343" lon="-1.15852">
        <ele>49.351746</ele>
        <time>2022-12-26T08:44:39.206Z</time>
      </trkpt>
      <trkpt lat="44.63334" lon="-1.15851">
        <ele>49.574812</ele>
        <time>2022-12-26T08:44:42.203Z</time>
      </trkpt>
      <trkpt lat="44.63325" lon="-1.1585">
        <ele>49.790602</ele>
        <time>2022-12-26T08:44:44.201Z</time>
      </trkpt>
      <trkpt lat="44.63315" lon="-1.1585">
        <ele>50.018028</ele>
        <time>2022-12-26T08:44:46.205Z</time>
      </trkpt>
      <trkpt lat="44.63306" lon="-1.15849">
        <ele>50.233556</ele>
        <time>2022-12-26T08:44:48.199Z</time>
      </trkpt>
      <trkpt lat="44.63297" lon="-1.15844">
        <ele>50.478773</ele>
        <time>2022-12-26T08:44:52.197Z</time>
      </trkpt>
      <trkpt lat="44.63286" lon="-1.15838">
        <ele>50.757033</ele>
        <time>2022-12-26T08:44:58.190Z</time>
      </trkpt>
      <trkpt lat="44.63277" lon="-1.15837">
        <ele>50.980669</ele>
        <time>2022-12-26T08:45:01.216Z</time>
      </trkpt>
      <trkpt lat="44.63267" lon="-1.15835">
        <ele>51.21842</ele>
        <time>2022-12-26T08:45:04.195Z</time>
      </trkpt>
      <trkpt lat="44.63256" lon="-1.15831">
        <ele>51.493345</ele>
        <time>2022-12-26T08:45:08.206Z</time>
      </trkpt>
      <trkpt lat="44.63245" lon="-1.1583">
        <ele>51.743512</ele>
        <time>2022-12-26T08:45:12.196Z</time>
      </trkpt>
      <trkpt lat="44.63235" lon="-1.15823">
        <ele>52.015105</ele>
        <time>2022-12-26T08:45:16.203Z</time>
      </trkpt>
      <trkpt lat="44.63228" lon="-1.1581">
        <ele>52.285745</ele>
        <time>2022-12-26T08:45:20.205Z</time>
      </trkpt>
      <trkpt lat="44.63222" lon="-1.15797">
        <ele>52.553757</ele>
        <time>2022-12-26T08:45:24.196Z</time>
      </trkpt>
      <trkpt lat="44.63216" lon="-1.15783">
        <ele>52.832823</ele>
        <time>2022-12-26T08:45:28.204Z</time>
      </trkpt>
      <trkpt lat="44.6321" lon="-1.15771">
        <ele>53.08744</ele>
        <time>2022-12-26T08:45:32.198Z</time>
      </trkpt>
      <trkpt lat="44.63204" lon="-1.15758">
        <ele>53.337386</ele>
        <time>2022-12-26T08:45:36.205Z</time>
      </trkpt>
      <trkpt lat="44.63199" lon="-1.15746">
        <ele>53.581653</ele>
        <time>2022-12-26T08:45:41.212Z</time>
      </trkpt>
      <trkpt lat="44.63192" lon="-1.15736">
        <ele>53.747985</ele>
        <time>2022-12-26T08:45:45.203Z</time>
      </trkpt>
      <trkpt lat="44.63187" lon="-1.15725">
        <ele>53.895181</ele>
        <time>2022-12-26T08:45:50.205Z</time>
      </trkpt>
      <trkpt lat="44.63183" lon="-1.15714">
        <ele>54.036987</ele>
        <time>2022-12-26T08:45:55.211Z</time>
      </trkpt>
      <trkpt lat="44.63177" lon="-1.15702">
        <ele>54.189264</ele>
        <time>2022-12-26T08:45:59.205Z</time>
      </trkpt>
      <trkpt lat="44.6317" lon="-1.1569">
        <ele>54.364589</ele>
        <time>2022-12-26T08:46:03.210Z</time>
      </trkpt>
      <trkpt lat="44.63163" lon="-1.15678">
        <ele>54.539365</ele>
        <time>2022-12-26T08:46:07.210Z</time>
      </trkpt>
      <trkpt lat="44.63157" lon="-1.15665">
        <ele>54.707079</ele>
        <time>2022-12-26T08:46:11.192Z</time>
      </trkpt>
      <trkpt lat="44.63149" lon="-1.15658">
        <ele>54.85857</ele>
        <time>2022-12-26T08:46:15.196Z</time>
      </trkpt>
      <trkpt lat="44.63142" lon="-1.15649">
        <ele>55.0075</ele>
        <time>2022-12-26T08:46:19.212Z</time>
      </trkpt>
      <trkpt lat="44.63137" lon="-1.15637">
        <ele>55.15255</ele>
        <time>2022-12-26T08:46:23.221Z</time>
      </trkpt>
      <trkpt lat="44.63132" lon="-1.15624">
        <ele>55.314491</ele>
        <time>2022-12-26T08:46:27.210Z</time>
      </trkpt>
      <trkpt lat="44.63126" lon="-1.1561">
        <ele>55.503203</ele>
        <time>2022-12-26T08:46:31.200Z</time>
      </trkpt>
      <trkpt lat="44.63121" lon="-1.15599">
        <ele>55.647086</ele>
        <time>2022-12-26T08:46:34.207Z</time>
      </trkpt>
      <trkpt lat="44.63116" lon="-1.15588">
        <ele>55.788647</ele>
        <time>2022-12-26T08:46:37.198Z</time>
      </trkpt>
      <trkpt lat="44.63116" lon="-1.1557">
        <ele>55.98229</ele>
        <time>2022-12-26T08:46:41.206Z</time>
      </trkpt>
      <trkpt lat="44.63113" lon="-1.15554">
        <ele>56.171231</ele>
        <time>2022-12-26T08:46:44.200Z</time>
      </trkpt>
      <trkpt lat="44.63112" lon="-1.15536">
        <ele>56.37136</ele>
        <time>2022-12-26T08:46:47.196Z</time>
      </trkpt>
      <trkpt lat="44.63113" lon="-1.15523">
        <ele>56.240305</ele>
        <time>2022-12-26T08:46:49.215Z</time>
      </trkpt>
      <trkpt lat="44.63117" lon="-1.15505">
        <ele>55.838271</ele>
        <time>2022-12-26T08:46:52.213Z</time>
      </trkpt>
      <trkpt lat="44.63122" lon="-1.15489">
        <ele>55.451377</ele>
        <time>2022-12-26T08:46:55.203Z</time>
      </trkpt>
      <trkpt lat="44.63127" lon="-1.15473">
        <ele>55.051187</ele>
        <time>2022-12-26T08:46:58.219Z</time>
      </trkpt>
      <trkpt lat="44.63131" lon="-1.15459">
        <ele>54.721123</ele>
        <time>2022-12-26T08:47:01.218Z</time>
      </trkpt>
      <trkpt lat="44.63134" lon="-1.15445">
        <ele>54.401475</ele>
        <time>2022-12-26T08:47:05.200Z</time>
      </trkpt>
      <trkpt lat="44.63133" lon="-1.1546">
        <ele>54.075</ele>
        <time>2022-12-26T08:47:15.204Z</time>
      </trkpt>
      <trkpt lat="44.63141" lon="-1.15453">
        <ele>53.77326</ele>
        <time>2022-12-26T08:47:28.202Z</time>
      </trkpt>
      <trkpt lat="44.63144" lon="-1.15439">
        <ele>53.456938</ele>
        <time>2022-12-26T08:47:33.208Z</time>
      </trkpt>
      <trkpt lat="44.63153" lon="-1.15432">
        <ele>53.145457</ele>
        <time>2022-12-26T08:47:45.217Z</time>
      </trkpt>
      <trkpt lat="44.6315" lon="-1.15419">
        <ele>52.846576</ele>
        <time>2022-12-26T08:47:52.204Z</time>
      </trkpt>
      <trkpt lat="44.63153" lon="-1.15404">
        <ele>52.496048</ele>
        <time>2022-12-26T08:47:57.196Z</time>
      </trkpt>
      <trkpt lat="44.63156" lon="-1.15391">
        <ele>52.19593</ele>
        <time>2022-12-26T08:48:00.199Z</time>
      </trkpt>
      <trkpt lat="44.63159" lon="-1.15378">
        <ele>51.880325</ele>
        <time>2022-12-26T08:48:03.235Z</time>
      </trkpt>
      <trkpt lat="44.63163" lon="-1.15364">
        <ele>51.555473</ele>
        <time>2022-12-26T08:48:06.200Z</time>
      </trkpt>
      <trkpt lat="44.63166" lon="-1.15351">
        <ele>51.266936</ele>
        <time>2022-12-26T08:48:09.198Z</time>
      </trkpt>
      <trkpt lat="44.63168" lon="-1.15335">
        <ele>50.908287</ele>
        <time>2022-12-26T08:48:13.204Z</time>
      </trkpt>
      <trkpt lat="44.63172" lon="-1.15323">
        <ele>50.79996</ele>
        <time>2022-12-26T08:48:16.197Z</time>
      </trkpt>
      <trkpt lat="44.63176" lon="-1.15309">
        <ele>50.709574</ele>
        <time>2022-12-26T08:48:19.216Z</time>
      </trkpt>
      <trkpt lat="44.6318" lon="-1.15294">
        <ele>50.613865</ele>
        <time>2022-12-26T08:48:22.197Z</time>
      </trkpt>
      <trkpt lat="44.63185" lon="-1.1528">
        <ele>50.518483</ele>
        <time>2022-12-26T08:48:25.215Z</time>
      </trkpt>
      <trkpt lat="44.63188" lon="-1.15266">
        <ele>50.43147</ele>
        <time>2022-12-26T08:48:28.198Z</time>
      </trkpt>
      <trkpt lat="44.63192" lon="-1.15255">
        <ele>50.354384</ele>
        <time>2022-12-26T08:48:31.195Z</time>
      </trkpt>
      <trkpt lat="44.63195" lon="-1.15242">
        <ele>50.275035</ele>
        <time>2022-12-26T08:48:35.206Z</time>
      </trkpt>
      <trkpt lat="44.63202" lon="-1.15233">
        <ele>50.194024</ele>
        <time>2022-12-26T08:48:39.201Z</time>
      </trkpt>
      <trkpt lat="44.63204" lon="-1.15216">
        <ele>50.088472</ele>
        <time>2022-12-26T08:48:43.195Z</time>
      </trkpt>
      <trkpt lat="44.63206" lon="-1.15202">
        <ele>50.00659</ele>
        <time>2022-12-26T08:48:46.221Z</time>
      </trkpt>
      <trkpt lat="44.63206" lon="-1.15189">
        <ele>49.925684</ele>
        <time>2022-12-26T08:48:50.201Z</time>
      </trkpt>
      <trkpt lat="44.63203" lon="-1.15175">
        <ele>49.839725</ele>
        <time>2022-12-26T08:48:55.196Z</time>
      </trkpt>
      <trkpt lat="44.63203" lon="-1.15158">
        <ele>49.74011</ele>
        <time>2022-12-26T08:48:59.200Z</time>
      </trkpt>
      <trkpt lat="44.63204" lon="-1.15145">
        <ele>49.658584</ele>
        <time>2022-12-26T08:49:02.202Z</time>
      </trkpt>
      <trkpt lat="44.63206" lon="-1.1513">
        <ele>49.568079</ele>
        <time>2022-12-26T08:49:05.201Z</time>
      </trkpt>
      <trkpt lat="44.63208" lon="-1.15116">
        <ele>49.479505</ele>
        <time>2022-12-26T08:49:08.206Z</time>
      </trkpt>
      <trkpt lat="44.6321" lon="-1.15101">
        <ele>49.388871</ele>
        <time>2022-12-26T08:49:11.200Z</time>
      </trkpt>
      <trkpt lat="44.63212" lon="-1.15087">
        <ele>49.482497</ele>
        <time>2022-12-26T08:49:14.204Z</time>
      </trkpt>
      <trkpt lat="44.63215" lon="-1.15072">
        <ele>49.750613</ele>
        <time>2022-12-26T08:49:17.202Z</time>
      </trkpt>
      <trkpt lat="44.63219" lon="-1.15058">
        <ele>50.023653</ele>
        <time>2022-12-26T08:49:20.198Z</time>
      </trkpt>
      <trkpt lat="44.63223" lon="-1.15046">
        <ele>50.263352</ele>
        <time>2022-12-26T08:49:23.203Z</time>
      </trkpt>
      <trkpt lat="44.63225" lon="-1.1503">
        <ele>50.540354</ele>
        <time>2022-12-26T08:49:26.202Z</time>
      </trkpt>
      <trkpt lat="44.63227" lon="-1.15016">
        <ele>50.793424</ele>
        <time>2022-12-26T08:49:29.202Z</time>
      </trkpt>
      <trkpt lat="44.63229" lon="-1.15002">
        <ele>51.046472</ele>
        <time>2022-12-26T08:49:32.202Z</time>
      </trkpt>
      <trkpt lat="44.6323" lon="-1.14989">
        <ele>51.284669</ele>
        <time>2022-12-26T08:49:35.212Z</time>
      </trkpt>
      <trkpt lat="44.63234" lon="-1.14974">
        <ele>51.570223</ele>
        <time>2022-12-26T08:49:39.209Z</time>
      </trkpt>
      <trkpt lat="44.63236" lon="-1.1496">
        <ele>51.819386</ele>
        <time>2022-12-26T08:49:43.208Z</time>
      </trkpt>
      <trkpt lat="44.63236" lon="-1.14947">
        <ele>52.046579</ele>
        <time>2022-12-26T08:49:47.205Z</time>
      </trkpt>
      <trkpt lat="44.63238" lon="-1.14934">
        <ele>52.273319</ele>
        <time>2022-12-26T08:49:51.198Z</time>
      </trkpt>
      <trkpt lat="44.63241" lon="-1.14922">
        <ele>52.516266</ele>
        <time>2022-12-26T08:49:54.200Z</time>
      </trkpt>
      <trkpt lat="44.63246" lon="-1.14909">
        <ele>52.782559</ele>
        <time>2022-12-26T08:49:57.209Z</time>
      </trkpt>
      <trkpt lat="44.63253" lon="-1.14898">
        <ele>53.038469</ele>
        <time>2022-12-26T08:50:00.201Z</time>
      </trkpt>
      <trkpt lat="44.6326" lon="-1.14888">
        <ele>53.290465</ele>
        <time>2022-12-26T08:50:04.209Z</time>
      </trkpt>
      <trkpt lat="44.63256" lon="-1.14874">
        <ele>53.563205</ele>
        <time>2022-12-26T08:50:09.197Z</time>
      </trkpt>
      <trkpt lat="44.63247" lon="-1.14866">
        <ele>53.807841</ele>
        <time>2022-12-26T08:50:12.207Z</time>
      </trkpt>
      <trkpt lat="44.6324" lon="-1.14856">
        <ele>53.689501</ele>
        <time>2022-12-26T08:50:15.199Z</time>
      </trkpt>
      <trkpt lat="44.63233" lon="-1.14848">
        <ele>53.561781</ele>
        <time>2022-12-26T08:50:17.203Z</time>
      </trkpt>
      <trkpt lat="44.63223" lon="-1.14838">
        <ele>53.388312</ele>
        <time>2022-12-26T08:50:20.202Z</time>
      </trkpt>
      <trkpt lat="44.63214" lon="-1.14831">
        <ele>53.240603</ele>
        <time>2022-12-26T08:50:23.206Z</time>
      </trkpt>
      <trkpt lat="44.63203" lon="-1.14823">
        <ele>53.068519</ele>
        <time>2022-12-26T08:50:26.213Z</time>
      </trkpt>
      <trkpt lat="44.63194" lon="-1.14816">
        <ele>52.917687</ele>
        <time>2022-12-26T08:50:29.205Z</time>
      </trkpt>
      <trkpt lat="44.63184" lon="-1.14809">
        <ele>52.766192</ele>
        <time>2022-12-26T08:50:32.201Z</time>
      </trkpt>
      <trkpt lat="44.63174" lon="-1.14803">
        <ele>52.609185</ele>
        <time>2022-12-26T08:50:36.213Z</time>
      </trkpt>
      <trkpt lat="44.63169" lon="-1.1479">
        <ele>52.47162</ele>
        <time>2022-12-26T08:50:40.198Z</time>
      </trkpt>
      <trkpt lat="44.63173" lon="-1.14777">
        <ele>52.332768</ele>
        <time>2022-12-26T08:50:43.222Z</time>
      </trkpt>
      <trkpt lat="44.63178" lon="-1.14763">
        <ele>52.167377</ele>
        <time>2022-12-26T08:50:47.206Z</time>
      </trkpt>
      <trkpt lat="44.63182" lon="-1.14749">
        <ele>52.015614</ele>
        <time>2022-12-26T08:50:51.205Z</time>
      </trkpt>
      <trkpt lat="44.63185" lon="-1.14736">
        <ele>51.880108</ele>
        <time>2022-12-26T08:50:54.200Z</time>
      </trkpt>
      <trkpt lat="44.63189" lon="-1.14721">
        <ele>51.72273</ele>
        <time>2022-12-26T08:50:57.206Z</time>
      </trkpt>
      <trkpt lat="44.63193" lon="-1.1471">
        <ele>51.595509</ele>
        <time>2022-12-26T08:50:59.205Z</time>
      </trkpt>
      <trkpt lat="44.63196" lon="-1.14698">
        <ele>51.461742</ele>
        <time>2022-12-26T08:51:01.204Z</time>
      </trkpt>
      <trkpt lat="44.63198" lon="-1.14684">
        <ele>51.323427</ele>
        <time>2022-12-26T08:51:03.204Z</time>
      </trkpt>
      <trkpt lat="44.63202" lon="-1.14667">
        <ele>51.262384</ele>
        <time>2022-12-26T08:51:06.207Z</time>
      </trkpt>
      <trkpt lat="44.63208" lon="-1.14653">
        <ele>51.238682</ele>
        <time>2022-12-26T08:51:09.205Z</time>
      </trkpt>
      <trkpt lat="44.63214" lon="-1.14641">
        <ele>51.216558</ele>
        <time>2022-12-26T08:51:12.193Z</time>
      </trkpt>
      <trkpt lat="44.63225" lon="-1.14629">
        <ele>51.187741</ele>
        <time>2022-12-26T08:51:15.207Z</time>
      </trkpt>
      <trkpt lat="44.63234" lon="-1.14618">
        <ele>51.161693</ele>
        <time>2022-12-26T08:51:18.198Z</time>
      </trkpt>
      <trkpt lat="44.63244" lon="-1.14605">
        <ele>51.134438</ele>
        <time>2022-12-26T08:51:21.197Z</time>
      </trkpt>
      <trkpt lat="44.63251" lon="-1.14592">
        <ele>51.109635</ele>
        <time>2022-12-26T08:51:24.228Z</time>
      </trkpt>
      <trkpt lat="44.63258" lon="-1.14583">
        <ele>51.088803</ele>
        <time>2022-12-26T08:51:27.204Z</time>
      </trkpt>
      <trkpt lat="44.63269" lon="-1.14581">
        <ele>51.066533</ele>
        <time>2022-12-26T08:51:30.193Z</time>
      </trkpt>
      <trkpt lat="44.63277" lon="-1.14574">
        <ele>51.047111</ele>
        <time>2022-12-26T08:51:33.210Z</time>
      </trkpt>
      <trkpt lat="44.63278" lon="-1.14561">
        <ele>51.027219</ele>
        <time>2022-12-26T08:51:37.198Z</time>
      </trkpt>
      <trkpt lat="44.63277" lon="-1.14548">
        <ele>51.007155</ele>
        <time>2022-12-26T08:51:41.196Z</time>
      </trkpt>
      <trkpt lat="44.63277" lon="-1.14535">
        <ele>50.987521</ele>
        <time>2022-12-26T08:51:44.202Z</time>
      </trkpt>
      <trkpt lat="44.63278" lon="-1.14521">
        <ele>50.96693</ele>
        <time>2022-12-26T08:51:47.202Z</time>
      </trkpt>
      <trkpt lat="44.63288" lon="-1.14512">
        <ele>50.942804</ele>
        <time>2022-12-26T08:51:51.203Z</time>
      </trkpt>
      <trkpt lat="44.63298" lon="-1.14511">
        <ele>50.920565</ele>
        <time>2022-12-26T08:51:56.218Z</time>
      </trkpt>
      <trkpt lat="44.63303" lon="-1.14496">
        <ele>50.904702</ele>
        <time>2022-12-26T08:52:01.198Z</time>
      </trkpt>
      <trkpt lat="44.63304" lon="-1.14483">
        <ele>50.904154</ele>
        <time>2022-12-26T08:52:04.203Z</time>
      </trkpt>
      <trkpt lat="44.63304" lon="-1.14468">
        <ele>50.903484</ele>
        <time>2022-12-26T08:52:07.211Z</time>
      </trkpt>
      <trkpt lat="44.63306" lon="-1.14451">
        <ele>50.90276</ele>
        <time>2022-12-26T08:52:10.203Z</time>
      </trkpt>
      <trkpt lat="44.63309" lon="-1.14434">
        <ele>50.902026</ele>
        <time>2022-12-26T08:52:13.202Z</time>
      </trkpt>
      <trkpt lat="44.63312" lon="-1.14416">
        <ele>50.901251</ele>
        <time>2022-12-26T08:52:16.205Z</time>
      </trkpt>
      <trkpt lat="44.63314" lon="-1.14398">
        <ele>50.900461</ele>
        <time>2022-12-26T08:52:19.204Z</time>
      </trkpt>
      <trkpt lat="44.63318" lon="-1.14381">
        <ele>50.89973</ele>
        <time>2022-12-26T08:52:22.221Z</time>
      </trkpt>
      <trkpt lat="44.63319" lon="-1.14366">
        <ele>50.89908</ele>
        <time>2022-12-26T08:52:25.202Z</time>
      </trkpt>
      <trkpt lat="44.63322" lon="-1.14353">
        <ele>50.898492</ele>
        <time>2022-12-26T08:52:28.198Z</time>
      </trkpt>
      <trkpt lat="44.63324" lon="-1.1434">
        <ele>50.897914</ele>
        <time>2022-12-26T08:52:31.207Z</time>
      </trkpt>
      <trkpt lat="44.63327" lon="-1.14325">
        <ele>50.897255</ele>
        <time>2022-12-26T08:52:34.212Z</time>
      </trkpt>
      <trkpt lat="44.63329" lon="-1.1431">
        <ele>50.896617</ele>
        <time>2022-12-26T08:52:37.198Z</time>
      </trkpt>
      <trkpt lat="44.63331" lon="-1.14293">
        <ele>50.895891</ele>
        <time>2022-12-26T08:52:41.231Z</time>
      </trkpt>
      <trkpt lat="44.63333" lon="-1.14278">
        <ele>50.89526</ele>
        <time>2022-12-26T08:52:44.207Z</time>
      </trkpt>
      <trkpt lat="44.63335" lon="-1.14265">
        <ele>50.894678</ele>
        <time>2022-12-26T08:52:47.210Z</time>
      </trkpt>
      <trkpt lat="44.63336" lon="-1.14277">
        <ele>50.905421</ele>
        <time>2022-12-26T08:54:08.208Z</time>
      </trkpt>
      <trkpt lat="44.63329" lon="-1.14288">
        <ele>50.995336</ele>
        <time>2022-12-26T08:54:15.228Z</time>
      </trkpt>
      <trkpt lat="44.63318" lon="-1.14289">
        <ele>51.087858</ele>
        <time>2022-12-26T08:54:19.203Z</time>
      </trkpt>
      <trkpt lat="44.63309" lon="-1.14288">
        <ele>51.17181</ele>
        <time>2022-12-26T08:54:22.206Z</time>
      </trkpt>
      <trkpt lat="44.63298" lon="-1.14286">
        <ele>51.269013</ele>
        <time>2022-12-26T08:54:25.192Z</time>
      </trkpt>
      <trkpt lat="44.63286" lon="-1.14286">
        <ele>51.373745</ele>
        <time>2022-12-26T08:54:28.207Z</time>
      </trkpt>
      <trkpt lat="44.63274" lon="-1.14283">
        <ele>51.479312</ele>
        <time>2022-12-26T08:54:31.205Z</time>
      </trkpt>
      <trkpt lat="44.63264" lon="-1.14282">
        <ele>51.570456</ele>
        <time>2022-12-26T08:54:34.211Z</time>
      </trkpt>
      <trkpt lat="44.63255" lon="-1.1428">
        <ele>51.653404</ele>
        <time>2022-12-26T08:54:37.198Z</time>
      </trkpt>
      <trkpt lat="44.63245" lon="-1.14278">
        <ele>51.740982</ele>
        <time>2022-12-26T08:54:40.202Z</time>
      </trkpt>
      <trkpt lat="44.63234" lon="-1.14277">
        <ele>51.830774</ele>
        <time>2022-12-26T08:54:43.206Z</time>
      </trkpt>
      <trkpt lat="44.63223" lon="-1.14276">
        <ele>51.933909</ele>
        <time>2022-12-26T08:54:47.211Z</time>
      </trkpt>
      <trkpt lat="44.63214" lon="-1.14275">
        <ele>52.01436</ele>
        <time>2022-12-26T08:54:50.221Z</time>
      </trkpt>
      <trkpt lat="44.63204" lon="-1.14272">
        <ele>52.097571</ele>
        <time>2022-12-26T08:54:53.206Z</time>
      </trkpt>
      <trkpt lat="44.63195" lon="-1.14264">
        <ele>52.192728</ele>
        <time>2022-12-26T08:54:57.223Z</time>
      </trkpt>
      <trkpt lat="44.63187" lon="-1.14257">
        <ele>52.279927</ele>
        <time>2022-12-26T08:55:00.212Z</time>
      </trkpt>
      <trkpt lat="44.63178" lon="-1.14249">
        <ele>52.366143</ele>
        <time>2022-12-26T08:55:03.215Z</time>
      </trkpt>
      <trkpt lat="44.63169" lon="-1.14242">
        <ele>52.461724</ele>
        <time>2022-12-26T08:55:06.225Z</time>
      </trkpt>
      <trkpt lat="44.63158" lon="-1.14234">
        <ele>52.532302</ele>
        <time>2022-12-26T08:55:09.203Z</time>
      </trkpt>
      <trkpt lat="44.63147" lon="-1.14226">
        <ele>52.600467</ele>
        <time>2022-12-26T08:55:12.223Z</time>
      </trkpt>
      <trkpt lat="44.63136" lon="-1.1422">
        <ele>52.663364</ele>
        <time>2022-12-26T08:55:15.219Z</time>
      </trkpt>
      <trkpt lat="44.63125" lon="-1.14213">
        <ele>52.731833</ele>
        <time>2022-12-26T08:55:18.204Z</time>
      </trkpt>
      <trkpt lat="44.63114" lon="-1.14205">
        <ele>52.797664</ele>
        <time>2022-12-26T08:55:21.192Z</time>
      </trkpt>
      <trkpt lat="44.63104" lon="-1.14199">
        <ele>52.857615</ele>
        <time>2022-12-26T08:55:24.223Z</time>
      </trkpt>
      <trkpt lat="44.63093" lon="-1.14191">
        <ele>52.924774</ele>
        <time>2022-12-26T08:55:27.207Z</time>
      </trkpt>
      <trkpt lat="44.63082" lon="-1.14183">
        <ele>52.990451</ele>
        <time>2022-12-26T08:55:30.228Z</time>
      </trkpt>
      <trkpt lat="44.6307" lon="-1.14178">
        <ele>53.057607</ele>
        <time>2022-12-26T08:55:33.215Z</time>
      </trkpt>
      <trkpt lat="44.63059" lon="-1.1417">
        <ele>53.123454</ele>
        <time>2022-12-26T08:55:36.224Z</time>
      </trkpt>
      <trkpt lat="44.63049" lon="-1.14163">
        <ele>53.18588</ele>
        <time>2022-12-26T08:55:39.224Z</time>
      </trkpt>
      <trkpt lat="44.63038" lon="-1.14157">
        <ele>53.248684</ele>
        <time>2022-12-26T08:55:42.224Z</time>
      </trkpt>
      <trkpt lat="44.63027" lon="-1.14153">
        <ele>53.311316</ele>
        <time>2022-12-26T08:55:45.226Z</time>
      </trkpt>
      <trkpt lat="44.63017" lon="-1.14151">
        <ele>53.367102</ele>
        <time>2022-12-26T08:55:48.212Z</time>
      </trkpt>
      <trkpt lat="44.63005" lon="-1.14149">
        <ele>53.43093</ele>
        <time>2022-12-26T08:55:51.224Z</time>
      </trkpt>
      <trkpt lat="44.62992" lon="-1.14147">
        <ele>53.432669</ele>
        <time>2022-12-26T08:55:54.210Z</time>
      </trkpt>
      <trkpt lat="44.6298" lon="-1.14146">
        <ele>53.409124</ele>
        <time>2022-12-26T08:55:57.226Z</time>
      </trkpt>
      <trkpt lat="44.62967" lon="-1.14144">
        <ele>53.384607</ele>
        <time>2022-12-26T08:56:00.199Z</time>
      </trkpt>
      <trkpt lat="44.62954" lon="-1.14142">
        <ele>53.360806</ele>
        <time>2022-12-26T08:56:03.222Z</time>
      </trkpt>
      <trkpt lat="44.62942" lon="-1.1414">
        <ele>53.337974</ele>
        <time>2022-12-26T08:56:06.205Z</time>
      </trkpt>
      <trkpt lat="44.6293" lon="-1.14137">
        <ele>53.314867</ele>
        <time>2022-12-26T08:56:09.206Z</time>
      </trkpt>
      <trkpt lat="44.62917" lon="-1.14136">
        <ele>53.290782</ele>
        <time>2022-12-26T08:56:12.223Z</time>
      </trkpt>
      <trkpt lat="44.62907" lon="-1.14135">
        <ele>53.273378</ele>
        <time>2022-12-26T08:56:14.201Z</time>
      </trkpt>
      <trkpt lat="44.62898" lon="-1.14134">
        <ele>53.256146</ele>
        <time>2022-12-26T08:56:16.215Z</time>
      </trkpt>
      <trkpt lat="44.62889" lon="-1.14132">
        <ele>53.238886</ele>
        <time>2022-12-26T08:56:18.210Z</time>
      </trkpt>
      <trkpt lat="44.6288" lon="-1.14131">
        <ele>53.221455</ele>
        <time>2022-12-26T08:56:20.203Z</time>
      </trkpt>
      <trkpt lat="44.62867" lon="-1.14128">
        <ele>53.197109</ele>
        <time>2022-12-26T08:56:23.206Z</time>
      </trkpt>
      <trkpt lat="44.62854" lon="-1.14125">
        <ele>53.173026</ele>
        <time>2022-12-26T08:56:26.203Z</time>
      </trkpt>
      <trkpt lat="44.62841" lon="-1.14124">
        <ele>53.148718</ele>
        <time>2022-12-26T08:56:29.206Z</time>
      </trkpt>
      <trkpt lat="44.62828" lon="-1.14122">
        <ele>53.124652</ele>
        <time>2022-12-26T08:56:32.207Z</time>
      </trkpt>
      <trkpt lat="44.62816" lon="-1.1412">
        <ele>53.143612</ele>
        <time>2022-12-26T08:56:35.209Z</time>
      </trkpt>
      <trkpt lat="44.62805" lon="-1.14117">
        <ele>53.189156</ele>
        <time>2022-12-26T08:56:38.206Z</time>
      </trkpt>
      <trkpt lat="44.62793" lon="-1.14115">
        <ele>53.236693</ele>
        <time>2022-12-26T08:56:41.201Z</time>
      </trkpt>
      <trkpt lat="44.6278" lon="-1.14113">
        <ele>53.2883</ele>
        <time>2022-12-26T08:56:44.230Z</time>
      </trkpt>
      <trkpt lat="44.62768" lon="-1.14111">
        <ele>53.33965</ele>
        <time>2022-12-26T08:56:47.209Z</time>
      </trkpt>
      <trkpt lat="44.62756" lon="-1.14112">
        <ele>53.38925</ele>
        <time>2022-12-26T08:56:50.213Z</time>
      </trkpt>
      <trkpt lat="44.62743" lon="-1.14114">
        <ele>53.440653</ele>
        <time>2022-12-26T08:56:53.217Z</time>
      </trkpt>
      <trkpt lat="44.62731" lon="-1.14119">
        <ele>53.48997</ele>
        <time>2022-12-26T08:56:56.221Z</time>
      </trkpt>
      <trkpt lat="44.62719" lon="-1.14125">
        <ele>53.542522</ele>
        <time>2022-12-26T08:56:59.231Z</time>
      </trkpt>
      <trkpt lat="44.62708" lon="-1.14131">
        <ele>53.592281</ele>
        <time>2022-12-26T08:57:02.226Z</time>
      </trkpt>
      <trkpt lat="44.62697" lon="-1.14136">
        <ele>53.637436</ele>
        <time>2022-12-26T08:57:05.217Z</time>
      </trkpt>
      <trkpt lat="44.62688" lon="-1.1414">
        <ele>53.676665</ele>
        <time>2022-12-26T08:57:08.205Z</time>
      </trkpt>
      <trkpt lat="44.62677" lon="-1.14141">
        <ele>53.72124</ele>
        <time>2022-12-26T08:57:12.225Z</time>
      </trkpt>
      <trkpt lat="44.62669" lon="-1.14133">
        <ele>53.763655</ele>
        <time>2022-12-26T08:57:16.218Z</time>
      </trkpt>
      <trkpt lat="44.62662" lon="-1.14124">
        <ele>53.801832</ele>
        <time>2022-12-26T08:57:21.203Z</time>
      </trkpt>
      <trkpt lat="44.62651" lon="-1.14123">
        <ele>53.844533</ele>
        <time>2022-12-26T08:57:38.209Z</time>
      </trkpt>
      <trkpt lat="44.62643" lon="-1.14116">
        <ele>53.814144</ele>
        <time>2022-12-26T08:57:43.214Z</time>
      </trkpt>
      <trkpt lat="44.62638" lon="-1.14103">
        <ele>53.779769</ele>
        <time>2022-12-26T08:57:47.227Z</time>
      </trkpt>
      <trkpt lat="44.62633" lon="-1.14091">
        <ele>53.747728</ele>
        <time>2022-12-26T08:57:50.239Z</time>
      </trkpt>
      <trkpt lat="44.62629" lon="-1.14077">
        <ele>53.714447</ele>
        <time>2022-12-26T08:57:53.200Z</time>
      </trkpt>
      <trkpt lat="44.62625" lon="-1.14064">
        <ele>53.682847</ele>
        <time>2022-12-26T08:57:56.224Z</time>
      </trkpt>
      <trkpt lat="44.62619" lon="-1.1405">
        <ele>53.645159</ele>
        <time>2022-12-26T08:58:00.198Z</time>
      </trkpt>
      <trkpt lat="44.62613" lon="-1.14038">
        <ele>53.611422</ele>
        <time>2022-12-26T08:58:03.206Z</time>
      </trkpt>
      <trkpt lat="44.62608" lon="-1.14025">
        <ele>53.576714</ele>
        <time>2022-12-26T08:58:07.222Z</time>
      </trkpt>
      <trkpt lat="44.62602" lon="-1.14013">
        <ele>53.543489</ele>
        <time>2022-12-26T08:58:12.215Z</time>
      </trkpt>
      <trkpt lat="44.62592" lon="-1.14009">
        <ele>53.510755</ele>
        <time>2022-12-26T08:58:17.198Z</time>
      </trkpt>
      <trkpt lat="44.62583" lon="-1.14006">
        <ele>53.480188</ele>
        <time>2022-12-26T08:58:20.213Z</time>
      </trkpt>
      <trkpt lat="44.62573" lon="-1.14003">
        <ele>53.448136</ele>
        <time>2022-12-26T08:58:23.200Z</time>
      </trkpt>
      <trkpt lat="44.62564" lon="-1.13998">
        <ele>53.415049</ele>
        <time>2022-12-26T08:58:26.212Z</time>
      </trkpt>
      <trkpt lat="44.62554" lon="-1.13993">
        <ele>53.382906</ele>
        <time>2022-12-26T08:58:29.203Z</time>
      </trkpt>
      <trkpt lat="44.62544" lon="-1.13988">
        <ele>53.346196</ele>
        <time>2022-12-26T08:58:33.201Z</time>
      </trkpt>
      <trkpt lat="44.62523" lon="-1.13978">
        <ele>53.277516</ele>
        <time>2022-12-26T08:58:54.201Z</time>
      </trkpt>
      <trkpt lat="44.62513" lon="-1.13974">
        <ele>53.27281</ele>
        <time>2022-12-26T08:58:57.196Z</time>
      </trkpt>
      <trkpt lat="44.62502" lon="-1.13969">
        <ele>53.280957</ele>
        <time>2022-12-26T08:59:00.198Z</time>
      </trkpt>
      <trkpt lat="44.62492" lon="-1.13963">
        <ele>53.289298</ele>
        <time>2022-12-26T08:59:03.209Z</time>
      </trkpt>
      <trkpt lat="44.62482" lon="-1.13958">
        <ele>53.296917</ele>
        <time>2022-12-26T08:59:06.199Z</time>
      </trkpt>
      <trkpt lat="44.62472" lon="-1.13954">
        <ele>53.304054</ele>
        <time>2022-12-26T08:59:09.201Z</time>
      </trkpt>
      <trkpt lat="44.62462" lon="-1.1395">
        <ele>53.311613</ele>
        <time>2022-12-26T08:59:12.196Z</time>
      </trkpt>
      <trkpt lat="44.62451" lon="-1.13946">
        <ele>53.319954</ele>
        <time>2022-12-26T08:59:15.205Z</time>
      </trkpt>
      <trkpt lat="44.6244" lon="-1.13942">
        <ele>53.328385</ele>
        <time>2022-12-26T08:59:18.197Z</time>
      </trkpt>
      <trkpt lat="44.62429" lon="-1.13938">
        <ele>53.336853</ele>
        <time>2022-12-26T08:59:21.203Z</time>
      </trkpt>
      <trkpt lat="44.62418" lon="-1.13935">
        <ele>53.344964</ele>
        <time>2022-12-26T08:59:24.202Z</time>
      </trkpt>
      <trkpt lat="44.62407" lon="-1.13931">
        <ele>53.352662</ele>
        <time>2022-12-26T08:59:27.209Z</time>
      </trkpt>
      <trkpt lat="44.62397" lon="-1.13927">
        <ele>53.360399</ele>
        <time>2022-12-26T08:59:31.215Z</time>
      </trkpt>
      <trkpt lat="44.62389" lon="-1.1392">
        <ele>53.367413</ele>
        <time>2022-12-26T08:59:35.212Z</time>
      </trkpt>
      <trkpt lat="44.62386" lon="-1.13907">
        <ele>53.37481</ele>
        <time>2022-12-26T08:59:39.217Z</time>
      </trkpt>
      <trkpt lat="44.62388" lon="-1.13895">
        <ele>53.381453</ele>
        <time>2022-12-26T08:59:42.207Z</time>
      </trkpt>
      <trkpt lat="44.62392" lon="-1.13882">
        <ele>53.388438</ele>
        <time>2022-12-26T08:59:45.203Z</time>
      </trkpt>
      <trkpt lat="44.62396" lon="-1.13869">
        <ele>53.395733</ele>
        <time>2022-12-26T08:59:48.203Z</time>
      </trkpt>
      <trkpt lat="44.62401" lon="-1.13854">
        <ele>53.336631</ele>
        <time>2022-12-26T08:59:51.200Z</time>
      </trkpt>
      <trkpt lat="44.62405" lon="-1.1384">
        <ele>53.263464</ele>
        <time>2022-12-26T08:59:54.194Z</time>
      </trkpt>
      <trkpt lat="44.62407" lon="-1.13826">
        <ele>53.187745</ele>
        <time>2022-12-26T08:59:57.210Z</time>
      </trkpt>
      <trkpt lat="44.62411" lon="-1.13811">
        <ele>53.112206</ele>
        <time>2022-12-26T09:00:00.202Z</time>
      </trkpt>
      <trkpt lat="44.62413" lon="-1.13797">
        <ele>53.037736</ele>
        <time>2022-12-26T09:00:03.210Z</time>
      </trkpt>
      <trkpt lat="44.62415" lon="-1.13782">
        <ele>52.961721</ele>
        <time>2022-12-26T09:00:06.198Z</time>
      </trkpt>
      <trkpt lat="44.62418" lon="-1.13766">
        <ele>52.882754</ele>
        <time>2022-12-26T09:00:09.205Z</time>
      </trkpt>
      <trkpt lat="44.62421" lon="-1.1375">
        <ele>52.798236</ele>
        <time>2022-12-26T09:00:12.198Z</time>
      </trkpt>
      <trkpt lat="44.62424" lon="-1.13732">
        <ele>52.707859</ele>
        <time>2022-12-26T09:00:15.193Z</time>
      </trkpt>
      <trkpt lat="44.62426" lon="-1.13716">
        <ele>52.627393</ele>
        <time>2022-12-26T09:00:18.199Z</time>
      </trkpt>
      <trkpt lat="44.62429" lon="-1.13702">
        <ele>52.554258</ele>
        <time>2022-12-26T09:00:21.199Z</time>
      </trkpt>
      <trkpt lat="44.62431" lon="-1.1369">
        <ele>52.491143</ele>
        <time>2022-12-26T09:00:24.216Z</time>
      </trkpt>
      <trkpt lat="44.62434" lon="-1.13675">
        <ele>52.414094</ele>
        <time>2022-12-26T09:00:28.209Z</time>
      </trkpt>
      <trkpt lat="44.62438" lon="-1.13661">
        <ele>52.33815</ele>
        <time>2022-12-26T09:00:32.203Z</time>
      </trkpt>
      <trkpt lat="44.62441" lon="-1.13645">
        <ele>52.258322</ele>
        <time>2022-12-26T09:00:36.203Z</time>
      </trkpt>
      <trkpt lat="44.62445" lon="-1.13633">
        <ele>52.192969</ele>
        <time>2022-12-26T09:01:01.198Z</time>
      </trkpt>
      <trkpt lat="44.62449" lon="-1.13622">
        <ele>52.164368</ele>
        <time>2022-12-26T09:01:13.210Z</time>
      </trkpt>
      <trkpt lat="44.62447" lon="-1.13606">
        <ele>52.350253</ele>
        <time>2022-12-26T09:01:18.203Z</time>
      </trkpt>
      <trkpt lat="44.62441" lon="-1.13593">
        <ele>52.526237</ele>
        <time>2022-12-26T09:01:21.222Z</time>
      </trkpt>
      <trkpt lat="44.62436" lon="-1.13579">
        <ele>52.699363</ele>
        <time>2022-12-26T09:01:24.199Z</time>
      </trkpt>
      <trkpt lat="44.6243" lon="-1.13565">
        <ele>52.882116</ele>
        <time>2022-12-26T09:01:27.207Z</time>
      </trkpt>
      <trkpt lat="44.62425" lon="-1.1355">
        <ele>53.058768</ele>
        <time>2022-12-26T09:01:30.202Z</time>
      </trkpt>
      <trkpt lat="44.6242" lon="-1.13537">
        <ele>53.227759</ele>
        <time>2022-12-26T09:01:33.197Z</time>
      </trkpt>
      <trkpt lat="44.62417" lon="-1.13525">
        <ele>53.377465</ele>
        <time>2022-12-26T09:01:36.209Z</time>
      </trkpt>
      <trkpt lat="44.62412" lon="-1.1351">
        <ele>53.55448</ele>
        <time>2022-12-26T09:01:39.205Z</time>
      </trkpt>
      <trkpt lat="44.62407" lon="-1.13495">
        <ele>53.736847</ele>
        <time>2022-12-26T09:01:42.211Z</time>
      </trkpt>
      <trkpt lat="44.62402" lon="-1.1348">
        <ele>53.919521</ele>
        <time>2022-12-26T09:01:45.222Z</time>
      </trkpt>
      <trkpt lat="44.62397" lon="-1.13465">
        <ele>54.104941</ele>
        <time>2022-12-26T09:01:48.209Z</time>
      </trkpt>
      <trkpt lat="44.62392" lon="-1.13451">
        <ele>54.283596</ele>
        <time>2022-12-26T09:01:51.194Z</time>
      </trkpt>
      <trkpt lat="44.62387" lon="-1.13436">
        <ele>54.469297</ele>
        <time>2022-12-26T09:01:54.228Z</time>
      </trkpt>
      <trkpt lat="44.62381" lon="-1.13423">
        <ele>54.646447</ele>
        <time>2022-12-26T09:01:57.197Z</time>
      </trkpt>
      <trkpt lat="44.62372" lon="-1.13411">
        <ele>54.835879</ele>
        <time>2022-12-26T09:02:00.210Z</time>
      </trkpt>
      <trkpt lat="44.62363" lon="-1.13401">
        <ele>55.023285</ele>
        <time>2022-12-26T09:02:03.209Z</time>
      </trkpt>
      <trkpt lat="44.62353" lon="-1.1339">
        <ele>55.227112</ele>
        <time>2022-12-26T09:02:06.212Z</time>
      </trkpt>
      <trkpt lat="44.62341" lon="-1.1338">
        <ele>55.442347</ele>
        <time>2022-12-26T09:02:09.216Z</time>
      </trkpt>
      <trkpt lat="44.6233" lon="-1.1337">
        <ele>55.656823</ele>
        <time>2022-12-26T09:02:12.202Z</time>
      </trkpt>
      <trkpt lat="44.62319" lon="-1.1336">
        <ele>55.867091</ele>
        <time>2022-12-26T09:02:15.209Z</time>
      </trkpt>
      <trkpt lat="44.62311" lon="-1.13353">
        <ele>56.018099</ele>
        <time>2022-12-26T09:02:17.221Z</time>
      </trkpt>
      <trkpt lat="44.62303" lon="-1.13346">
        <ele>56.1642</ele>
        <time>2022-12-26T09:02:19.218Z</time>
      </trkpt>
      <trkpt lat="44.62292" lon="-1.13336">
        <ele>56.373413</ele>
        <time>2022-12-26T09:02:22.221Z</time>
      </trkpt>
      <trkpt lat="44.6228" lon="-1.13327">
        <ele>56.582096</ele>
        <time>2022-12-26T09:02:25.217Z</time>
      </trkpt>
      <trkpt lat="44.6227" lon="-1.13318">
        <ele>56.774741</ele>
        <time>2022-12-26T09:02:28.213Z</time>
      </trkpt>
      <trkpt lat="44.6226" lon="-1.13309">
        <ele>56.963805</ele>
        <time>2022-12-26T09:02:31.206Z</time>
      </trkpt>
      <trkpt lat="44.6225" lon="-1.133">
        <ele>57.151511</ele>
        <time>2022-12-26T09:02:34.215Z</time>
      </trkpt>
      <trkpt lat="44.62239" lon="-1.13291">
        <ele>57.35639</ele>
        <time>2022-12-26T09:02:37.202Z</time>
      </trkpt>
      <trkpt lat="44.62229" lon="-1.13282">
        <ele>57.554474</ele>
        <time>2022-12-26T09:02:40.208Z</time>
      </trkpt>
      <trkpt lat="44.62219" lon="-1.13273">
        <ele>57.74609</ele>
        <time>2022-12-26T09:02:43.201Z</time>
      </trkpt>
      <trkpt lat="44.62208" lon="-1.13265">
        <ele>57.796786</ele>
        <time>2022-12-26T09:02:46.203Z</time>
      </trkpt>
      <trkpt lat="44.62198" lon="-1.13255">
        <ele>57.737214</ele>
        <time>2022-12-26T09:02:49.225Z</time>
      </trkpt>
      <trkpt lat="44.62188" lon="-1.13246">
        <ele>57.677176</ele>
        <time>2022-12-26T09:02:52.202Z</time>
      </trkpt>
      <trkpt lat="44.62178" lon="-1.13237">
        <ele>57.615887</ele>
        <time>2022-12-26T09:02:55.206Z</time>
      </trkpt>
      <trkpt lat="44.62167" lon="-1.13228">
        <ele>57.554781</ele>
        <time>2022-12-26T09:02:58.207Z</time>
      </trkpt>
      <trkpt lat="44.62156" lon="-1.13218">
        <ele>57.493492</ele>
        <time>2022-12-26T09:03:01.208Z</time>
      </trkpt>
      <trkpt lat="44.62147" lon="-1.13211">
        <ele>57.440873</ele>
        <time>2022-12-26T09:03:04.222Z</time>
      </trkpt>
      <trkpt lat="44.62139" lon="-1.13203">
        <ele>57.391684</ele>
        <time>2022-12-26T09:03:07.209Z</time>
      </trkpt>
      <trkpt lat="44.62131" lon="-1.13196">
        <ele>57.344118</ele>
        <time>2022-12-26T09:03:10.204Z</time>
      </trkpt>
      <trkpt lat="44.62122" lon="-1.13189">
        <ele>57.295763</ele>
        <time>2022-12-26T09:03:13.222Z</time>
      </trkpt>
      <trkpt lat="44.62114" lon="-1.13181">
        <ele>57.246656</ele>
        <time>2022-12-26T09:03:16.202Z</time>
      </trkpt>
      <trkpt lat="44.62105" lon="-1.13171">
        <ele>57.193057</ele>
        <time>2022-12-26T09:03:20.202Z</time>
      </trkpt>
      <trkpt lat="44.62099" lon="-1.13161">
        <ele>57.144887</ele>
        <time>2022-12-26T09:03:25.204Z</time>
      </trkpt>
      <trkpt lat="44.62098" lon="-1.13147">
        <ele>57.096368</ele>
        <time>2022-12-26T09:03:42.211Z</time>
      </trkpt>
      <trkpt lat="44.62089" lon="-1.1314">
        <ele>57.046098</ele>
        <time>2022-12-26T09:03:47.227Z</time>
      </trkpt>
      <trkpt lat="44.62078" lon="-1.1314">
        <ele>56.992953</ele>
        <time>2022-12-26T09:03:51.221Z</time>
      </trkpt>
      <trkpt lat="44.62068" lon="-1.13139">
        <ele>56.94193</ele>
        <time>2022-12-26T09:03:55.226Z</time>
      </trkpt>
      <trkpt lat="44.62059" lon="-1.13139">
        <ele>56.802963</ele>
        <time>2022-12-26T09:03:58.206Z</time>
      </trkpt>
      <trkpt lat="44.62049" lon="-1.13137">
        <ele>56.649905</ele>
        <time>2022-12-26T09:04:01.201Z</time>
      </trkpt>
      <trkpt lat="44.62039" lon="-1.13131">
        <ele>56.494831</ele>
        <time>2022-12-26T09:04:04.196Z</time>
      </trkpt>
      <trkpt lat="44.62029" lon="-1.13123">
        <ele>56.316787</ele>
        <time>2022-12-26T09:04:07.206Z</time>
      </trkpt>
      <trkpt lat="44.62019" lon="-1.13115">
        <ele>56.139351</ele>
        <time>2022-12-26T09:04:10.198Z</time>
      </trkpt>
      <trkpt lat="44.62008" lon="-1.13107">
        <ele>55.956575</ele>
        <time>2022-12-26T09:04:13.220Z</time>
      </trkpt>
      <trkpt lat="44.61998" lon="-1.13099">
        <ele>55.783003</ele>
        <time>2022-12-26T09:04:16.211Z</time>
      </trkpt>
      <trkpt lat="44.61987" lon="-1.13092">
        <ele>55.602384</ele>
        <time>2022-12-26T09:04:19.226Z</time>
      </trkpt>
      <trkpt lat="44.61977" lon="-1.13084">
        <ele>55.417464</ele>
        <time>2022-12-26T09:04:22.223Z</time>
      </trkpt>
      <trkpt lat="44.61966" lon="-1.13075">
        <ele>55.228883</ele>
        <time>2022-12-26T09:04:25.211Z</time>
      </trkpt>
      <trkpt lat="44.61955" lon="-1.13068">
        <ele>55.049214</ele>
        <time>2022-12-26T09:04:28.224Z</time>
      </trkpt>
      <trkpt lat="44.61944" lon="-1.13061">
        <ele>54.869559</ele>
        <time>2022-12-26T09:04:31.228Z</time>
      </trkpt>
      <trkpt lat="44.61935" lon="-1.13054">
        <ele>54.710195</ele>
        <time>2022-12-26T09:04:34.205Z</time>
      </trkpt>
      <trkpt lat="44.61925" lon="-1.13046">
        <ele>54.539533</ele>
        <time>2022-12-26T09:04:38.209Z</time>
      </trkpt>
      <trkpt lat="44.61917" lon="-1.13039">
        <ele>54.403289</ele>
        <time>2022-12-26T09:04:41.226Z</time>
      </trkpt>
      <trkpt lat="44.61908" lon="-1.13033">
        <ele>54.250053</ele>
        <time>2022-12-26T09:04:44.210Z</time>
      </trkpt>
      <trkpt lat="44.61898" lon="-1.13025">
        <ele>54.22731</ele>
        <time>2022-12-26T09:04:48.206Z</time>
      </trkpt>
      <trkpt lat="44.61889" lon="-1.13019">
        <ele>54.227538</ele>
        <time>2022-12-26T09:04:52.207Z</time>
      </trkpt>
      <trkpt lat="44.6188" lon="-1.13011">
        <ele>54.227799</ele>
        <time>2022-12-26T09:04:57.220Z</time>
      </trkpt>
      <trkpt lat="44.61872" lon="-1.13004">
        <ele>54.22802</ele>
        <time>2022-12-26T09:05:00.212Z</time>
      </trkpt>
      <trkpt lat="44.61861" lon="-1.12997">
        <ele>54.22829</ele>
        <time>2022-12-26T09:05:03.210Z</time>
      </trkpt>
      <trkpt lat="44.61853" lon="-1.12993">
        <ele>54.228504</ele>
        <time>2022-12-26T09:05:05.222Z</time>
      </trkpt>
      <trkpt lat="44.61844" lon="-1.12986">
        <ele>54.228731</ele>
        <time>2022-12-26T09:05:07.205Z</time>
      </trkpt>
      <trkpt lat="44.61835" lon="-1.1298">
        <ele>54.228976</ele>
        <time>2022-12-26T09:05:09.224Z</time>
      </trkpt>
      <trkpt lat="44.61824" lon="-1.12974">
        <ele>54.229242</ele>
        <time>2022-12-26T09:05:11.207Z</time>
      </trkpt>
      <trkpt lat="44.61813" lon="-1.12969">
        <ele>54.229522</ele>
        <time>2022-12-26T09:05:13.214Z</time>
      </trkpt>
      <trkpt lat="44.61799" lon="-1.12971">
        <ele>54.22984</ele>
        <time>2022-12-26T09:05:15.209Z</time>
      </trkpt>
      <trkpt lat="44.61795" lon="-1.12956">
        <ele>54.230097</ele>
        <time>2022-12-26T09:05:17.208Z</time>
      </trkpt>
      <trkpt lat="44.61786" lon="-1.12951">
        <ele>54.230327</ele>
        <time>2022-12-26T09:05:20.200Z</time>
      </trkpt>
      <trkpt lat="44.61777" lon="-1.12947">
        <ele>54.230545</ele>
        <time>2022-12-26T09:05:24.210Z</time>
      </trkpt>
      <trkpt lat="44.61767" lon="-1.1294">
        <ele>54.230807</ele>
        <time>2022-12-26T09:05:28.205Z</time>
      </trkpt>
      <trkpt lat="44.61756" lon="-1.12935">
        <ele>54.231068</ele>
        <time>2022-12-26T09:05:32.226Z</time>
      </trkpt>
      <trkpt lat="44.61747" lon="-1.1293">
        <ele>54.231278</ele>
        <time>2022-12-26T09:05:36.218Z</time>
      </trkpt>
      <trkpt lat="44.61743" lon="-1.12918">
        <ele>54.231278</ele>
        <time>2022-12-26T09:05:52.205Z</time>
      </trkpt>
      <trkpt lat="44.61744" lon="-1.12905">
        <ele>54.231278</ele>
        <time>2022-12-26T09:05:57.200Z</time>
      </trkpt>
      <trkpt lat="44.61746" lon="-1.12891">
        <ele>54.231278</ele>
        <time>2022-12-26T09:06:01.196Z</time>
      </trkpt>
      <trkpt lat="44.61748" lon="-1.12876">
        <ele>54.231278</ele>
        <time>2022-12-26T09:06:05.207Z</time>
      </trkpt>
      <trkpt lat="44.61747" lon="-1.1286">
        <ele>54.231278</ele>
        <time>2022-12-26T09:06:08.210Z</time>
      </trkpt>
      <trkpt lat="44.61748" lon="-1.12847">
        <ele>54.231278</ele>
        <time>2022-12-26T09:06:11.208Z</time>
      </trkpt>
      <trkpt lat="44.61748" lon="-1.12834">
        <ele>54.231278</ele>
        <time>2022-12-26T09:06:15.205Z</time>
      </trkpt>
      <trkpt lat="44.6175" lon="-1.12819">
        <ele>54.231278</ele>
        <time>2022-12-26T09:06:19.204Z</time>
      </trkpt>
      <trkpt lat="44.61751" lon="-1.12807">
        <ele>54.231278</ele>
        <time>2022-12-26T09:06:23.206Z</time>
      </trkpt>
      <trkpt lat="44.61752" lon="-1.12792">
        <ele>54.231278</ele>
        <time>2022-12-26T09:06:27.203Z</time>
      </trkpt>
      <trkpt lat="44.61753" lon="-1.12777">
        <ele>54.231278</ele>
        <time>2022-12-26T09:06:31.208Z</time>
      </trkpt>
      <trkpt lat="44.61753" lon="-1.12762">
        <ele>54.231278</ele>
        <time>2022-12-26T09:06:35.213Z</time>
      </trkpt>
      <trkpt lat="44.61754" lon="-1.1276">
        <ele>54.231278</ele>
        <time>2022-12-26T09:06:52.403Z</time>
        <extensions>
          <visugpx:TrkExtension xmlns:visugpx="https://www.visugpx.com/editgpx/">
            <visugpx:node>1</visugpx:node>
            </visugpx:TrkExtension>
        </extensions>
      </trkpt>
    </trkseg>
  </trk>
</gpx>